Data Archive--July, 2006

Date Time Heat Index Current Temp Wind Chill High Temp Low Temp Humidity Dew Point Wind Speed Gust Wind Direction Rain Barometer
07/01/2006 12:00 a 62.6 62.6 62.6 62.6 62.5 96 61.4 0.0 0.0 Plea 0.00 29.969
07/01/2006 12:10 a 62.5 62.5 62.5 62.6 62.5 98 61.9 0.0 1.0 SSE 0.00 29.968
07/01/2006 12:20 a 62.5 62.5 62.5 62.5 62.4 97 61.6 0.0 0.0 Plea 0.00 29.970
07/01/2006 12:30 a 62.4 62.4 62.4 62.5 62.3 97 61.5 0.0 0.0 Plea 0.00 29.968
07/01/2006 12:40 a 62.2 62.2 62.2 62.3 62.1 97 61.3 0.0 0.0 Plea 0.00 29.969
07/01/2006 12:50 a 62.0 62.0 62.0 62.1 61.8 97 61.1 0.0 0.0 Plea 0.00 29.968
07/01/2006 1:00 a 61.7 61.7 61.7 61.8 61.6 98 61.1 0.0 0.0 Plea 0.00 29.971
07/01/2006 1:10 a 61.5 61.5 61.5 61.6 61.4 97 60.6 0.0 0.0 Plea 0.00 29.976
07/01/2006 1:20 a 61.3 61.3 61.3 61.4 61.3 98 60.7 0.0 0.0 Plea 0.00 29.968
07/01/2006 1:30 a 61.3 61.3 61.3 61.4 61.2 98 60.7 0.0 0.0 Plea 0.00 29.973
07/01/2006 1:40 a 61.2 61.2 61.2 61.3 61.1 99 60.9 0.0 0.0 Plea 0.00 29.971
07/01/2006 1:50 a 61.0 61.0 61.0 61.1 60.8 99 60.7 0.0 0.0 Plea 0.00 29.973
07/01/2006 2:00 a 60.8 60.8 60.8 60.9 60.8 99 60.5 0.0 0.0 Plea 0.00 29.974
07/01/2006 2:10 a 60.7 60.7 60.7 60.8 60.7 99 60.4 0.0 0.0 Plea 0.00 29.973
07/01/2006 2:20 a 60.6 60.6 60.6 60.7 60.5 99 60.3 0.0 0.0 Plea 0.00 29.974
07/01/2006 2:30 a 60.5 60.5 60.5 60.6 60.4 99 60.2 0.0 0.0 Plea 0.00 29.975
07/01/2006 2:40 a 60.4 60.4 60.4 60.5 60.3 99 60.1 0.0 0.0 Plea 0.00 29.972
07/01/2006 2:50 a 60.2 60.2 60.2 60.3 60.1 99 59.9 0.0 0.0 Plea 0.00 29.970
07/01/2006 3:00 a 60.0 60.0 60.0 60.1 60.0 100 60.0 0.0 0.0 Plea 0.00 29.971
07/01/2006 3:10 a 60.0 60.0 60.0 60.0 59.9 100 60.0 0.0 0.0 Plea 0.00 29.969
07/01/2006 3:20 a 59.9 59.9 59.9 60.0 59.9 100 59.9 0.0 0.0 Plea 0.00 29.969
07/01/2006 3:30 a 59.9 59.9 59.9 59.9 59.8 100 59.9 0.0 0.0 Plea 0.00 29.971
07/01/2006 3:40 a 59.7 59.7 59.7 59.9 59.6 100 59.7 0.0 0.0 Plea 0.00 29.967
07/01/2006 3:50 a 59.6 59.6 59.6 59.6 59.5 100 59.6 0.0 0.0 Plea 0.00 29.973
07/01/2006 4:00 a 59.5 59.5 59.5 59.5 59.5 100 59.5 0.0 0.0 Plea 0.00 29.974
07/01/2006 4:10 a 59.5 59.5 59.5 59.5 59.4 100 59.5 0.0 0.0 Plea 0.00 29.973
07/01/2006 4:20 a 59.4 59.4 59.4 59.5 59.3 100 59.4 0.0 0.0 Plea 0.00 29.979
07/01/2006 4:30 a 59.2 59.2 59.2 59.3 59.1 100 59.2 0.0 0.0 Plea 0.00 29.981
07/01/2006 4:40 a 59.0 59.0 59.0 59.1 59.0 100 59.0 0.0 0.0 Plea 0.00 29.983
07/01/2006 4:50 a 59.0 59.0 59.0 59.0 58.9 100 59.0 0.0 0.0 Plea 0.00 29.982
07/01/2006 5:00 a 58.9 58.9 58.9 59.0 58.8 100 58.9 0.0 0.0 Plea 0.00 29.983
07/01/2006 5:10 a 58.8 58.8 58.8 58.8 58.7 100 58.8 0.0 0.0 Plea 0.00 29.989
07/01/2006 5:20 a 58.7 58.7 58.7 58.8 58.6 100 58.7 0.0 0.0 Plea 0.00 29.992
07/01/2006 5:30 a 58.6 58.6 58.6 58.7 58.6 100 58.6 0.0 0.0 Plea 0.00 29.998
07/01/2006 5:40 a 58.6 58.6 58.6 58.7 58.6 100 58.6 0.0 0.0 Plea 0.00 30.001
07/01/2006 5:50 a 58.6 58.6 58.6 58.6 58.5 100 58.6 0.0 0.0 Plea 0.00 30.005
07/01/2006 6:00 a 58.5 58.5 58.5 58.6 58.5 100 58.5 0.0 0.0 Plea 0.00 30.005
07/01/2006 6:10 a 58.5 58.5 58.5 58.6 58.5 100 58.5 0.0 0.0 Plea 0.00 30.012
07/01/2006 6:20 a 58.6 58.6 58.6 58.7 58.5 100 58.6 0.0 0.0 Plea 0.00 30.014
07/01/2006 6:30 a 58.7 58.7 58.7 58.7 58.6 100 58.7 0.0 0.0 Plea 0.00 30.018
07/01/2006 6:40 a 58.9 58.9 58.9 59.1 58.7 100 58.9 0.0 0.0 Plea 0.00 30.021
07/01/2006 6:50 a 59.3 59.3 59.3 59.5 59.1 100 59.3 0.0 0.0 Plea 0.00 30.023
07/01/2006 7:00 a 59.8 59.8 59.8 60.1 59.5 100 59.8 0.0 0.0 Plea 0.00 30.024
07/01/2006 7:10 a 60.2 60.2 60.2 60.4 60.0 100 60.2 0.0 0.0 Plea 0.00 30.024
07/01/2006 7:20 a 60.6 60.6 60.6 60.9 60.4 100 60.6 0.0 0.0 Plea 0.00 30.031
07/01/2006 7:30 a 61.1 61.1 61.1 61.3 60.9 100 61.1 0.0 0.0 Plea 0.00 30.033
07/01/2006 7:40 a 61.5 61.5 61.5 61.8 61.3 100 61.5 0.0 0.0 Plea 0.00 30.034
07/01/2006 7:50 a 62.1 62.1 62.1 62.5 61.8 100 62.1 0.0 0.0 Plea 0.00 30.038
07/01/2006 8:00 a 62.8 62.8 62.8 63.1 62.4 100 62.8 0.0 0.0 Plea 0.00 30.040
07/01/2006 8:10 a 63.2 63.2 63.2 63.4 63.1 100 63.2 0.0 0.0 Plea 0.00 30.042
07/01/2006 8:20 a 63.6 63.6 63.6 63.9 63.4 100 63.6 0.0 0.0 Plea 0.00 30.042
07/01/2006 8:30 a 64.3 64.3 64.3 64.7 63.9 100 64.3 0.0 0.0 Plea 0.00 30.037
07/01/2006 8:40 a 64.9 64.9 64.9 65.1 64.7 97 64.0 0.0 0.0 Plea 0.00 30.033
07/01/2006 8:50 a 65.3 65.3 65.3 65.6 65.1 96 64.1 0.0 0.0 Plea 0.00 30.035
07/01/2006 9:00 a 65.9 65.9 65.9 66.3 65.6 90 62.9 0.0 1.0 SSE 0.00 30.037
07/01/2006 9:10 a 66.8 66.8 66.8 67.3 66.3 87 62.8 0.0 1.0 Plea 0.00 30.032
07/01/2006 9:20 a 67.8 67.8 67.8 68.3 67.3 87 63.8 0.0 0.0 Plea 0.00 30.034
07/01/2006 9:30 a 71.0 68.8 68.8 69.2 68.3 85 64.1 0.0 0.0 Plea 0.00 30.037
07/01/2006 9:40 a 72.0 69.7 69.7 70.1 69.2 80 63.3 0.0 0.0 Plea 0.00 30.033
07/01/2006 9:50 a 72.2 70.5 70.5 70.9 70.1 76 62.6 0.0 2.0 SSE 0.00 30.037
07/01/2006 10:00 a 72.0 71.3 71.3 71.7 70.8 75 63.0 0.0 0.0 Plea 0.00 30.034
07/01/2006 10:10 a 73.0 72.1 72.1 72.5 71.7 75 63.7 0.0 2.0 SSE 0.00 30.032
07/01/2006 10:20 a 74.4 72.9 72.9 73.3 72.5 74 64.1 0.0 0.0 Plea 0.00 30.034
07/01/2006 10:30 a 76.0 73.7 73.7 74.0 73.3 70 63.3 0.0 2.0 Plea 0.00 30.035
07/01/2006 10:40 a 75.8 74.3 74.3 74.7 74.0 69 63.5 0.0 1.0 Plea 0.00 30.035
07/01/2006 10:50 a 76.6 75.1 75.1 75.4 74.7 68 63.8 0.0 1.0 Plea 0.00 30.035
07/01/2006 11:00 a 77.4 75.7 75.7 76.0 75.4 67 64.0 0.0 1.0 SSE 0.00 30.032
07/01/2006 11:10 a 76.8 76.3 76.3 76.6 76.0 64 63.2 0.0 3.0 SSE 0.00 30.026
07/01/2006 11:20 a 78.6 76.9 76.9 77.2 76.6 68 65.5 0.0 2.0 SSE 0.00 30.031
07/01/2006 11:30 a 79.4 77.5 77.5 77.9 77.2 64 64.4 0.0 1.0 NE 0.00 30.032
07/01/2006 11:40 a 79.5 78.1 78.1 78.5 77.9 65 65.4 0.0 2.0 NE 0.00 30.035
07/01/2006 11:50 a 81.0 78.9 78.9 79.3 78.5 60 63.8 0.0 1.0 NE 0.00 30.040
07/01/2006 12:00 p 81.6 79.6 79.6 79.9 79.2 58 63.5 0.0 3.0 NE 0.00 30.039
07/01/2006 12:10 p 81.2 80.2 80.2 80.5 79.9 56 63.1 0.0 1.0 ENE 0.00 30.037
07/01/2006 12:20 p 82.6 80.8 80.8 81.0 80.5 58 64.6 0.0 3.0 ENE 0.00 30.035
07/01/2006 12:30 p 82.0 81.2 81.2 81.5 81.0 55 63.5 0.0 2.0 NNE 0.00 30.032
07/01/2006 12:40 p 83.3 81.9 81.9 82.1 81.6 53 63.1 0.0 2.0 SW 0.00 30.030
07/01/2006 12:50 p 83.0 82.3 82.3 82.6 82.1 50 61.8 0.0 2.0 NW 0.00 30.018
07/01/2006 1:00 p 85.0 82.7 82.7 82.9 82.5 50 62.2 0.0 3.0 NE 0.00 30.016
07/01/2006 1:10 p 84.2 83.0 83.0 83.3 82.8 46 60.1 0.0 3.0 NE 0.00 30.014
07/01/2006 1:20 p 85.4 83.5 83.5 83.7 83.3 47 61.1 1.0 3.0 NNW 0.00 30.013
07/01/2006 1:30 p 85.0 83.8 83.8 84.0 83.6 45 60.2 0.0 3.0 S 0.00 30.009
07/01/2006 1:40 p 85.2 84.0 84.0 84.2 83.9 46 61.0 0.0 3.0 SW 0.00 30.005
07/01/2006 1:50 p 85.2 84.2 84.2 84.3 84.1 46 61.2 0.0 2.0 NNW 0.00 30.004
07/01/2006 2:00 p 85.2 84.4 84.4 84.7 84.3 46 61.4 0.0 1.0 ENE 0.00 30.001
07/01/2006 2:10 p 86.2 84.7 84.7 84.8 84.6 46 61.6 0.0 4.0 SE 0.00 29.995
07/01/2006 2:20 p 86.2 84.7 84.7 84.8 84.6 46 61.6 1.0 4.0 NNW 0.00 29.991
07/01/2006 2:30 p 86.4 84.5 84.5 84.6 84.4 47 62.1 0.0 2.0 ESE 0.00 29.990
07/01/2006 2:40 p 86.2 84.6 84.6 84.7 84.5 46 61.5 1.0 4.0 ESE 0.00 29.989
07/01/2006 2:50 p 85.6 84.4 84.4 84.5 84.2 48 62.6 0.0 3.0 SSE 0.00 29.984
07/01/2006 3:00 p 84.8 83.9 83.9 84.2 83.8 44 59.7 0.0 3.0 ENE 0.00 29.977
07/01/2006 3:10 p 85.2 83.9 83.9 83.9 83.8 46 60.9 0.0 3.0 SE 0.00 29.972
07/01/2006 3:20 p 85.6 84.0 84.0 84.2 83.9 48 62.2 0.0 2.0 SSE 0.00 29.973
07/01/2006 3:30 p 85.4 84.3 84.3 84.5 84.2 47 61.9 0.0 2.0 SSE 0.00 29.972
07/01/2006 3:40 p 86.4 84.5 84.5 84.6 84.5 47 62.1 0.0 2.0 WNW 0.00 29.969
07/01/2006 3:50 p 86.2 84.5 84.5 84.6 84.5 46 61.4 0.0 3.0 ESE 0.00 29.968
07/01/2006 4:00 p 86.4 84.5 84.5 84.6 84.4 47 62.1 0.0 2.0 WNW 0.00 29.965
07/01/2006 4:10 p 85.4 84.3 84.3 84.4 84.3 47 61.9 0.0 2.0 ENE 0.00 29.965
07/01/2006 4:20 p 85.2 84.2 84.2 84.3 84.1 46 61.2 0.0 2.0 ESE 0.00 29.960
07/01/2006 4:30 p 85.2 83.9 83.9 84.1 83.8 46 60.9 0.0 3.0 NNE 0.00 29.955
07/01/2006 4:40 p 85.6 83.7 83.7 83.8 83.7 48 61.9 0.0 2.0 SW 0.00 29.951
07/01/2006 4:50 p 85.2 83.5 83.5 83.7 83.2 46 60.5 0.0 2.0 NW 0.00 29.950
07/01/2006 5:00 p 84.6 83.1 83.1 83.2 83.0 48 61.4 0.0 4.0 SW 0.00 29.941
07/01/2006 5:10 p 84.8 83.0 83.0 83.1 82.9 49 61.9 0.0 2.0 SE 0.00 29.941
07/01/2006 5:20 p 84.6 83.1 83.1 83.1 83.0 48 61.4 0.0 1.0 SE 0.00 29.944
07/01/2006 5:30 p 84.6 83.0 83.0 83.1 82.8 48 61.3 0.0 3.0 SE 0.00 29.947
07/01/2006 5:40 p 85.0 82.7 82.7 82.8 82.6 50 62.2 0.0 3.0 ESE 0.00 29.946
07/01/2006 5:50 p 84.4 82.5 82.5 82.6 82.4 47 60.2 0.0 3.0 ESE 0.00 29.942
07/01/2006 6:00 p 82.7 82.4 82.4 82.5 82.4 47 60.1 0.0 2.0 SE 0.00 29.939
07/01/2006 6:10 p 82.8 82.4 82.4 82.4 82.3 48 60.7 0.0 2.0 NNE 0.00 29.943
07/01/2006 6:20 p 82.9 82.2 82.2 82.3 82.1 49 61.1 0.0 3.0 SSE 0.00 29.944
07/01/2006 6:30 p 83.2 82.0 82.0 82.1 81.9 52 62.6 0.0 2.0 SSE 0.00 29.944
07/01/2006 6:40 p 83.2 81.9 81.9 82.0 81.7 52 62.5 0.0 2.0 SE 0.00 29.942
07/01/2006 6:50 p 83.1 81.6 81.6 81.7 81.5 51 61.7 0.0 2.0 SE 0.00 29.934
07/01/2006 7:00 p 81.0 81.4 81.4 81.5 81.3 49 60.4 0.0 2.0 SE 0.00 29.934
07/01/2006 7:10 p 81.2 81.2 81.2 81.4 81.1 51 61.4 0.0 1.0 SSE 0.00 29.939
07/01/2006 7:20 p 81.6 80.8 80.8 81.1 80.5 53 62.1 0.0 0.0 Plea 0.00 29.937
07/01/2006 7:30 p 80.6 80.1 80.1 80.5 79.8 53 61.4 0.0 0.0 Plea 0.00 29.933
07/01/2006 7:40 p 80.8 79.6 79.6 79.9 79.4 54 61.5 0.0 1.0 Plea 0.00 29.936
07/01/2006 7:50 p 80.0 79.2 79.2 79.4 79.0 55 61.6 0.0 0.0 Plea 0.00 29.934
07/01/2006 8:00 p 80.2 78.8 78.8 79.0 78.5 56 61.8 0.0 0.0 Plea 0.00 29.930
07/01/2006 8:10 p 78.7 78.3 78.3 78.5 78.0 57 61.8 0.0 0.0 Plea 0.00 29.932
07/01/2006 8:20 p 78.8 77.8 77.8 78.0 77.5 58 61.8 0.0 0.0 Plea 0.00 29.937
07/01/2006 8:30 p 77.0 77.3 77.3 77.5 77.1 58 61.4 0.0 0.0 Plea 0.00 29.932
07/01/2006 8:40 p 77.0 76.9 76.9 77.1 76.7 59 61.5 0.0 0.0 Plea 0.00 29.931
07/01/2006 8:50 p 77.0 76.6 76.6 76.7 76.4 60 61.7 0.0 0.0 Plea 0.00 29.931
07/01/2006 9:00 p 76.2 76.2 76.2 76.4 76.0 61 61.8 0.0 0.0 Plea 0.00 29.929
07/01/2006 9:10 p 76.4 75.9 75.9 76.1 75.7 62 61.9 0.0 0.0 Plea 0.00 29.936
07/01/2006 9:20 p 76.6 75.5 75.5 75.8 75.3 63 62.0 0.0 0.0 Plea 0.00 29.936
07/01/2006 9:30 p 75.8 75.1 75.1 75.3 74.9 64 62.1 0.0 0.0 Plea 0.00 29.942
07/01/2006 9:40 p 75.8 74.9 74.9 75.0 74.8 64 61.9 0.0 2.0 S 0.00 29.947
07/01/2006 9:50 p 76.0 75.0 75.0 75.1 75.0 65 62.4 0.0 1.0 Plea 0.00 29.952
07/01/2006 10:00 p 76.0 75.1 75.1 75.3 75.0 65 62.5 0.0 0.0 Plea 0.00 29.956
07/01/2006 10:10 p 76.2 75.3 75.3 75.4 75.2 66 63.2 0.0 1.0 S 0.00 29.955
07/01/2006 10:20 p 77.4 75.5 75.5 75.5 75.4 67 63.8 0.0 1.0 S 0.00 29.960
07/01/2006 10:30 p 76.4 75.3 75.3 75.4 75.2 67 63.6 0.0 0.0 Plea 0.00 29.965
07/01/2006 10:40 p 76.6 75.2 75.2 75.2 75.0 68 63.9 0.0 0.0 Plea 0.00 29.962
07/01/2006 10:50 p 76.6 74.9 74.9 75.1 74.8 68 63.6 0.0 1.0 SSW 0.00 29.963
07/01/2006 11:00 p 76.8 74.7 74.7 74.8 74.6 69 63.9 0.0 0.0 Plea 0.00 29.964
07/01/2006 11:10 p 76.0 74.4 74.4 74.6 74.2 70 64.0 0.0 1.0 SSW 0.00 29.961
07/01/2006 11:20 p 75.8 74.1 74.1 74.2 74.0 69 63.3 0.0 0.0 Plea 0.00 29.963
07/01/2006 11:30 p 76.0 73.9 73.9 74.0 73.8 70 63.5 0.0 1.0 Plea 0.00 29.962
07/01/2006 11:40 p 76.0 73.7 73.7 73.8 73.6 70 63.3 0.0 0.0 Plea 0.00 29.961
07/01/2006 11:50 p 76.0 73.5 73.5 73.7 73.4 70 63.1 0.0 1.0 Plea 0.00 29.956
07/02/2006 12:00 a 74.1 73.3 73.3 73.4 73.1 71 63.3 0.0 0.0 Plea 0.00 29.954
07/02/2006 12:10 a 74.2 73.0 73.0 73.2 72.8 72 63.4 0.0 0.0 Plea 0.00 29.960
07/02/2006 12:20 a 74.2 72.6 72.6 72.8 72.4 72 63.1 0.0 0.0 Plea 0.00 29.956
07/02/2006 12:30 a 72.6 72.3 72.3 72.4 72.1 73 63.2 0.0 0.0 Plea 0.00 29.956
07/02/2006 12:40 a 72.8 71.9 71.9 72.1 71.7 74 63.2 0.0 0.0 Plea 0.00 29.955
07/02/2006 12:50 a 72.6 71.5 71.5 71.7 71.3 73 62.4 0.0 0.0 Plea 0.00 29.951
07/02/2006 1:00 a 72.0 71.2 71.2 71.3 71.0 75 62.9 0.0 0.0 Plea 0.00 29.953
07/02/2006 1:10 a 72.0 70.9 70.9 71.0 70.7 75 62.6 0.0 0.0 Plea 0.00 29.954
07/02/2006 1:20 a 72.2 70.6 70.6 70.7 70.4 76 62.7 0.0 0.0 Plea 0.00 29.951
07/02/2006 1:30 a 71.4 70.3 70.3 70.4 70.1 77 62.7 0.0 0.0 Plea 0.00 29.953
07/02/2006 1:40 a 71.6 70.1 70.1 70.2 70.0 78 62.9 0.0 0.0 Plea 0.00 29.957
07/02/2006 1:50 a 71.6 69.8 69.8 70.0 69.7 78 62.6 0.0 0.0 Plea 0.00 29.958
07/02/2006 2:00 a 71.8 69.5 69.5 69.7 69.3 79 62.7 0.0 0.0 Plea 0.00 29.956
07/02/2006 2:10 a 71.0 69.3 69.3 69.4 69.2 80 62.9 0.0 0.0 Plea 0.00 29.951
07/02/2006 2:20 a 71.0 69.1 69.1 69.2 69.0 80 62.7 0.0 0.0 Plea 0.00 29.946
07/02/2006 2:30 a 71.0 68.9 68.9 69.0 68.7 81 62.8 0.0 0.0 Plea 0.00 29.939
07/02/2006 2:40 a 71.0 68.7 68.7 68.8 68.6 82 63.0 0.0 0.0 Plea 0.00 29.935
07/02/2006 2:50 a 71.0 68.5 68.5 68.6 68.4 83 63.1 0.0 0.0 Plea 0.00 29.939
07/02/2006 3:00 a 70.0 68.3 68.3 68.4 68.3 84 63.3 0.0 0.0 Plea 0.00 29.939
07/02/2006 3:10 a 70.0 68.3 68.3 68.3 68.3 84 63.3 0.0 0.0 Plea 0.00 29.938
07/02/2006 3:20 a 70.0 68.3 68.3 68.3 68.3 84 63.3 0.0 0.0 Plea 0.00 29.936
07/02/2006 3:30 a 70.0 68.4 68.4 68.4 68.3 84 63.4 0.0 0.0 Plea 0.00 29.934
07/02/2006 3:40 a 70.0 68.4 68.4 68.4 68.3 83 63.0 0.0 0.0 Plea 0.00 29.931
07/02/2006 3:50 a 70.0 68.4 68.4 68.4 68.4 84 63.4 0.0 0.0 Plea 0.00 29.931
07/02/2006 4:00 a 70.0 68.4 68.4 68.4 68.3 83 63.0 0.0 0.0 Plea 0.00 29.932
07/02/2006 4:10 a 70.0 68.3 68.3 68.4 68.3 83 62.9 0.0 0.0 Plea 0.00 29.926
07/02/2006 4:20 a 70.0 68.3 68.3 68.4 68.3 83 62.9 0.0 0.0 Plea 0.00 29.926
07/02/2006 4:30 a 70.0 68.3 68.3 68.3 68.3 83 62.9 0.0 0.0 Plea 0.00 29.922
07/02/2006 4:40 a 70.0 68.2 68.2 68.3 68.2 83 62.8 0.0 0.0 Plea 0.00 29.928
07/02/2006 4:50 a 70.0 68.1 68.1 68.2 68.0 83 62.7 0.0 0.0 Plea 0.00 29.923
07/02/2006 5:00 a 67.9 67.9 67.9 68.0 67.8 83 62.5 0.0 0.0 Plea 0.00 29.921
07/02/2006 5:10 a 67.7 67.7 67.7 67.8 67.6 84 62.7 0.0 0.0 Plea 0.00 29.923
07/02/2006 5:20 a 67.5 67.5 67.5 67.7 67.4 85 62.8 0.0 0.0 Plea 0.00 29.927
07/02/2006 5:30 a 67.3 67.3 67.3 67.4 67.1 85 62.6 0.0 0.0 Plea 0.00 29.920
07/02/2006 5:40 a 67.1 67.1 67.1 67.2 67.0 86 62.8 0.0 0.0 Plea 0.00 29.918
07/02/2006 5:50 a 67.0 67.0 67.0 67.0 67.0 85 62.3 0.0 0.0 Plea 0.00 29.922
07/02/2006 6:00 a 67.0 67.0 67.0 67.1 67.0 85 62.3 0.0 0.0 Plea 0.00 29.927
07/02/2006 6:10 a 67.2 67.2 67.2 67.4 67.1 85 62.5 0.0 0.0 Plea 0.00 29.924
07/02/2006 6:20 a 67.5 67.5 67.5 67.7 67.3 85 62.8 0.0 0.0 Plea 0.00 29.920
07/02/2006 6:30 a 67.8 67.8 67.8 67.9 67.6 85 63.1 0.0 0.0 Plea 0.00 29.917
07/02/2006 6:40 a 70.0 68.0 68.0 68.2 67.9 84 63.0 0.0 0.0 Plea 0.00 29.917
07/02/2006 6:50 a 70.0 68.3 68.3 68.4 68.2 84 63.3 0.0 0.0 Plea 0.00 29.921
07/02/2006 7:00 a 71.0 68.5 68.5 68.6 68.4 85 63.8 0.0 0.0 Plea 0.00 29.920
07/02/2006 7:10 a 71.0 68.7 68.7 68.8 68.6 85 64.0 0.0 0.0 Plea 0.00 29.917
07/02/2006 7:20 a 71.0 69.0 69.0 69.2 68.8 84 64.0 0.0 1.0 Plea 0.00 29.913
07/02/2006 7:30 a 72.0 69.5 69.5 69.8 69.2 84 64.5 0.0 0.0 Plea 0.00 29.910
07/02/2006 7:40 a 72.0 70.1 70.1 70.5 69.8 84 65.0 0.0 0.0 Plea 0.00 29.907
07/02/2006 7:50 a 73.0 70.9 70.9 71.4 70.5 83 65.5 0.0 1.0 ENE 0.00 29.905
07/02/2006 8:00 a 74.0 71.7 71.7 72.1 71.4 81 65.6 0.0 0.0 Plea 0.00 29.901
07/02/2006 8:10 a 74.0 72.2 72.2 72.3 72.1 81 66.0 0.0 0.0 Plea 0.00 29.908
07/02/2006 8:20 a 74.0 72.4 72.4 72.6 72.2 81 66.2 0.0 0.0 Plea 0.00 29.909
07/02/2006 8:30 a 75.0 73.0 73.0 73.4 72.6 81 66.8 0.0 0.0 Plea 0.00 29.903
07/02/2006 8:40 a 76.0 73.9 73.9 74.3 73.5 79 67.0 0.0 0.0 Plea 0.00 29.903
07/02/2006 8:50 a 77.0 74.6 74.6 74.9 74.2 78 67.3 0.0 0.0 Plea 0.00 29.899
07/02/2006 9:00 a 77.0 75.1 75.1 75.2 74.9 77 67.4 0.0 0.0 Plea 0.00 29.902
07/02/2006 9:10 a 77.0 75.2 75.2 75.2 75.1 79 68.2 0.0 0.0 Plea 0.00 29.899
07/02/2006 9:20 a 78.8 75.5 75.5 75.8 75.2 78 68.2 0.0 0.0 Plea 0.00 29.897
07/02/2006 9:30 a 78.5 76.2 76.2 76.5 75.8 75 67.7 0.0 0.0 Plea 0.00 29.896
07/02/2006 9:40 a 80.2 76.8 76.8 77.2 76.5 76 68.7 0.0 0.0 Plea 0.00 29.891
07/02/2006 9:50 a 81.0 77.5 77.5 77.8 77.2 75 68.9 0.0 0.0 Plea 0.00 29.884
07/02/2006 10:00 a 80.4 78.2 78.2 78.6 77.9 72 68.4 0.0 0.0 Plea 0.00 29.884
07/02/2006 10:10 a 81.6 79.0 79.0 79.5 78.6 73 69.6 0.0 1.0 Plea 0.00 29.881
07/02/2006 10:20 a 83.0 79.8 79.8 80.1 79.5 70 69.1 0.0 4.0 SSE 0.00 29.883
07/02/2006 10:30 a 82.9 80.4 80.4 80.6 80.1 69 69.3 0.0 3.0 SW 0.00 29.876
07/02/2006 10:40 a 84.6 80.8 80.8 81.0 80.6 68 69.2 0.0 3.0 NW 0.00 29.872
07/02/2006 10:50 a 84.8 81.2 81.2 81.5 81.0 69 70.1 0.0 3.0 W 0.00 29.869
07/02/2006 11:00 a 86.1 81.8 81.8 82.1 81.5 67 69.8 0.0 2.0 E 0.00 29.871
07/02/2006 11:10 a 86.4 82.4 82.4 82.6 82.1 68 70.8 0.0 1.0 Plea 0.00 29.875
07/02/2006 11:20 a 88.2 82.6 82.6 82.7 82.6 68 71.0 0.0 2.0 WNW 0.00 29.876
07/02/2006 11:30 a 87.4 82.6 82.6 82.8 82.5 66 70.1 0.0 2.0 WNW 0.00 29.877
07/02/2006 11:40 a 87.4 82.9 82.9 83.0 82.7 66 70.4 0.0 2.0 WNW 0.00 29.877
07/02/2006 11:50 a 87.0 83.0 83.0 83.2 82.9 65 70.0 0.0 2.0 WNW 0.00 29.879
07/02/2006 12:00 p 87.0 83.2 83.2 83.2 83.2 65 70.2 0.0 3.0 WNW 0.00 29.874
07/02/2006 12:10 p 87.4 83.3 83.3 83.6 83.2 66 70.8 0.0 2.0 W 0.00 29.875
07/02/2006 12:20 p 89.0 83.9 83.9 84.3 83.6 65 70.9 0.0 3.0 SE 0.00 29.873
07/02/2006 12:30 p 89.8 84.7 84.7 84.9 84.3 62 70.2 0.0 4.0 S 0.00 29.872
07/02/2006 12:40 p 88.8 84.5 84.5 84.8 84.2 59 68.6 0.0 4.0 WNW 0.00 29.863
07/02/2006 12:50 p 87.4 84.2 84.2 84.3 84.2 61 69.3 0.0 2.0 WSW 0.00 29.860
07/02/2006 1:00 p 88.8 84.6 84.6 84.9 84.3 59 68.7 0.0 4.0 SSE 0.00 29.853
07/02/2006 1:10 p 90.7 85.6 85.6 86.3 84.9 59 69.6 1.0 4.0 SE 0.00 29.846
07/02/2006 1:20 p 91.5 87.1 87.1 87.5 86.4 55 69.0 1.0 3.0 SSW 0.00 29.842
07/02/2006 1:30 p 91.8 87.2 87.2 87.4 87.1 56 69.6 1.0 4.0 ESE 0.00 29.835
07/02/2006 1:40 p 93.2 87.6 87.6 88.1 87.2 54 68.9 0.0 4.0 E 0.00 29.832
07/02/2006 1:50 p 92.9 88.0 88.0 88.2 87.8 53 68.7 1.0 3.0 E 0.00 29.828
07/02/2006 2:00 p 93.5 87.8 87.8 87.9 87.6 55 69.6 0.0 3.0 SSW 0.00 29.816
07/02/2006 2:10 p 93.5 87.7 87.7 87.9 87.6 55 69.5 0.0 2.0 SSW 0.00 29.817
07/02/2006 2:20 p 92.3 88.2 88.2 88.6 87.9 51 67.8 1.0 3.0 SSW 0.00 29.817
07/02/2006 2:30 p 94.0 88.8 88.8 88.9 88.6 50 67.8 1.0 3.0 S 0.00 29.808
07/02/2006 2:40 p 94.6 88.5 88.5 88.8 88.1 52 68.6 0.0 3.0 NE 0.00 29.810
07/02/2006 2:50 p 92.9 88.3 88.3 88.5 88.1 53 69.0 0.0 4.0 SSW 0.00 29.812
07/02/2006 3:00 p 94.9 88.6 88.6 88.7 88.5 53 69.3 1.0 4.0 SW 0.00 29.808
07/02/2006 3:10 p 95.5 88.6 88.6 88.8 88.5 55 70.4 0.0 3.0 SE 0.00 29.807
07/02/2006 3:20 p 94.9 89.0 89.0 89.2 88.7 53 69.6 1.0 4.0 SE 0.00 29.806
07/02/2006 3:30 p 94.3 89.4 89.4 89.6 89.2 51 68.9 0.0 3.0 ESE 0.00 29.806
07/02/2006 3:40 p 94.7 89.6 89.6 89.7 89.4 49 67.9 1.0 3.0 WNW 0.00 29.807
07/02/2006 3:50 p 94.6 89.0 89.0 89.4 88.6 52 69.1 1.0 5.0 SSW 0.00 29.808
07/02/2006 4:00 p 94.9 88.7 88.7 89.0 88.5 53 69.4 1.0 4.0 SSW 0.00 29.805
07/02/2006 4:10 p 95.8 88.9 88.9 89.0 88.8 56 71.2 0.0 2.0 S 0.00 29.814
07/02/2006 4:20 p 92.9 88.4 88.4 88.8 88.0 53 69.1 0.0 3.0 S 0.00 29.815
07/02/2006 4:30 p 92.9 87.6 87.6 88.0 87.4 53 68.4 1.0 4.0 SSW 0.00 29.815
07/02/2006 4:40 p 93.5 87.5 87.5 87.5 87.4 55 69.3 0.0 2.0 SSW 0.00 29.819
07/02/2006 4:50 p 93.2 87.7 87.7 87.8 87.5 54 69.0 0.0 2.0 SSW 0.00 29.812
07/02/2006 5:00 p 93.8 87.7 87.7 87.8 87.4 56 70.1 0.0 2.0 NE 0.00 29.811
07/02/2006 5:10 p 92.7 87.2 87.2 87.4 87.0 59 71.1 0.0 2.0 NE 0.00 29.811
07/02/2006 5:20 p 92.4 87.0 87.0 87.1 87.0 58 70.4 0.0 3.0 NE 0.00 29.807
07/02/2006 5:30 p 91.8 86.9 86.9 87.1 86.9 56 69.3 0.0 3.0 SSE 0.00 29.807
07/02/2006 5:40 p 92.7 86.9 86.9 87.0 86.8 59 70.8 0.0 1.0 S 0.00 29.803
07/02/2006 5:50 p 92.7 86.6 86.6 86.8 86.5 59 70.6 0.0 2.0 SE 0.00 29.801
07/02/2006 6:00 p 90.7 86.4 86.4 86.5 86.3 59 70.4 0.0 1.0 SE 0.00 29.802
07/02/2006 6:10 p 91.4 86.2 86.2 86.3 86.0 61 71.2 0.0 0.0 Plea 0.00 29.795
07/02/2006 6:20 p 91.8 85.8 85.8 86.0 85.6 62 71.3 0.0 2.0 SE 0.00 29.795
07/02/2006 6:30 p 91.8 85.5 85.5 85.6 85.3 62 71.0 0.0 0.0 Plea 0.00 29.800
07/02/2006 6:40 p 89.4 85.2 85.2 85.3 85.2 61 70.2 0.0 0.0 Plea 0.00 29.800
07/02/2006 6:50 p 89.8 85.1 85.1 85.2 85.0 62 70.6 0.0 0.0 Plea 0.00 29.804
07/02/2006 7:00 p 87.6 84.8 84.8 85.0 84.3 53 65.8 2.0 10.0 E 0.00 29.841
07/02/2006 7:20 p 82.3 80.1 80.1 81.2 79.0 63 66.4 1.0 8.0 ESE 0.00 29.862
07/02/2006 7:30 p 80.4 77.9 77.9 79.0 76.7 72 68.1 1.0 5.0 E 0.02 29.867
07/02/2006 7:40 p 77.0 75.4 75.4 76.7 74.3 78 68.1 0.0 2.0 SW 0.02 29.872
07/02/2006 7:50 p 75.0 73.4 73.4 74.2 72.6 85 68.6 0.0 0.0 Plea 0.00 29.872
07/02/2006 8:00 p 74.0 72.1 72.1 72.6 71.7 88 68.3 0.0 1.0 ESE 0.01 29.864
07/02/2006 8:10 p 74.0 71.5 71.5 71.7 71.2 88 67.8 0.0 2.0 ESE 0.00 29.851
07/02/2006 8:20 p 73.0 71.2 71.2 71.3 71.1 89 67.8 0.0 3.0 ENE 0.02 29.846
07/02/2006 8:30 p 73.0 71.0 71.0 71.1 70.8 90 67.9 0.0 0.0 Plea 0.00 29.842
07/02/2006 8:50 p 73.8 70.5 70.5 70.6 70.4 94 68.7 0.0 1.0 E 0.00 29.845
07/02/2006 9:00 p 73.0 70.3 70.3 70.4 70.3 95 68.8 0.0 1.0 E 0.00 29.852
07/02/2006 9:10 p 73.2 70.2 70.2 70.3 70.2 96 69.0 0.0 0.0 Plea 0.00 29.860
07/02/2006 9:20 p 73.2 70.2 70.2 70.2 70.1 96 69.0 0.0 0.0 Plea 0.00 29.868
07/02/2006 9:30 p 73.4 70.2 70.2 70.2 70.1 97 69.3 0.0 0.0 Plea 0.00 29.878
07/02/2006 9:40 p 73.4 70.1 70.1 70.2 70.1 97 69.2 0.0 0.0 Plea 0.00 29.883
07/02/2006 9:50 p 73.4 70.1 70.1 70.1 70.0 97 69.2 0.0 0.0 Plea 0.00 29.881
07/02/2006 10:00 p 73.4 70.0 70.0 70.1 70.0 97 69.1 0.0 0.0 Plea 0.00 29.889
07/02/2006 10:10 p 73.4 69.9 69.9 70.0 69.9 97 69.0 0.0 0.0 Plea 0.00 29.896
07/02/2006 10:20 p 73.6 69.9 69.9 69.9 69.9 98 69.3 0.0 0.0 Plea 0.00 29.890
07/02/2006 10:30 p 73.6 69.9 69.9 69.9 69.8 98 69.3 0.0 0.0 Plea 0.00 29.885
07/02/2006 10:40 p 73.6 69.8 69.8 69.9 69.8 98 69.2 0.0 0.0 Plea 0.00 29.880
07/02/2006 10:50 p 73.8 69.8 69.8 69.9 69.8 99 69.5 0.0 0.0 Plea 0.00 29.882
07/02/2006 11:00 p 73.6 69.8 69.8 69.8 69.7 98 69.2 0.0 0.0 Plea 0.00 29.877
07/02/2006 11:10 p 73.8 69.7 69.7 69.8 69.7 99 69.4 0.0 0.0 Plea 0.00 29.886
07/02/2006 11:20 p 73.8 69.7 69.7 69.8 69.7 99 69.4 0.0 0.0 Plea 0.00 29.888
07/02/2006 11:40 p 74.0 69.6 69.6 69.7 69.6 100 69.6 0.0 0.0 Plea 0.00 29.889
07/02/2006 11:50 p 74.0 69.5 69.5 69.6 69.5 100 69.5 0.0 0.0 Plea 0.00 29.889
07/03/2006 12:00 a 71.9 69.4 69.4 69.5 69.3 99 69.1 0.0 0.0 Plea 0.00 29.892
07/03/2006 12:10 a 71.9 69.3 69.3 69.3 69.2 99 69.0 0.0 0.0 Plea 0.00 29.894
07/03/2006 12:20 a 71.9 69.1 69.1 69.3 69.0 99 68.8 0.0 0.0 Plea 0.00 29.897
07/03/2006 12:30 a 71.9 69.0 69.0 69.1 68.9 99 68.7 0.0 0.0 Plea 0.00 29.900
07/03/2006 12:40 a 71.9 68.9 68.9 68.9 68.8 99 68.6 0.0 0.0 Plea 0.00 29.894
07/03/2006 12:50 a 72.0 68.7 68.7 68.8 68.7 100 68.7 0.0 0.0 Plea 0.00 29.894
07/03/2006 1:00 a 72.0 68.7 68.7 68.8 68.7 100 68.7 0.0 0.0 Plea 0.00 29.894
07/03/2006 1:10 a 72.0 68.6 68.6 68.7 68.5 100 68.6 0.0 0.0 Plea 0.00 29.885
07/03/2006 1:20 a 72.0 68.5 68.5 68.6 68.5 100 68.5 0.0 0.0 Plea 0.00 29.878
07/03/2006 1:30 a 70.0 68.4 68.4 68.5 68.4 100 68.4 0.0 0.0 Plea 0.00 29.878
07/03/2006 1:40 a 70.0 68.4 68.4 68.4 68.3 100 68.4 0.0 0.0 Plea 0.00 29.880
07/03/2006 1:50 a 70.0 68.4 68.4 68.4 68.3 100 68.4 0.0 0.0 Plea 0.00 29.881
07/03/2006 2:00 a 70.0 68.3 68.3 68.3 68.2 100 68.3 0.0 0.0 Plea 0.00 29.876
07/03/2006 2:10 a 70.0 68.3 68.3 68.4 68.2 100 68.3 0.0 0.0 Plea 0.00 29.875
07/03/2006 2:20 a 70.0 68.3 68.3 68.4 68.3 100 68.3 0.0 0.0 Plea 0.00 29.877
07/03/2006 2:30 a 70.0 68.4 68.4 68.4 68.3 100 68.4 0.0 0.0 Plea 0.00 29.875
07/03/2006 2:40 a 70.0 68.3 68.3 68.4 68.3 100 68.3 0.0 0.0 Plea 0.00 29.877
07/03/2006 2:50 a 70.0 68.2 68.2 68.3 68.1 100 68.2 0.0 0.0 Plea 0.00 29.883
07/03/2006 3:00 a 70.0 68.1 68.1 68.1 68.1 100 68.1 0.0 0.0 Plea 0.00 29.877
07/03/2006 3:10 a 70.0 68.1 68.1 68.1 68.0 100 68.1 0.0 0.0 Plea 0.00 29.876
07/03/2006 3:20 a 70.0 68.1 68.1 68.1 68.0 100 68.1 0.0 0.0 Plea 0.00 29.871
07/03/2006 3:30 a 70.0 68.2 68.2 68.2 68.1 100 68.2 0.0 0.0 Plea 0.00 29.869
07/03/2006 3:40 a 70.0 68.2 68.2 68.3 68.2 100 68.2 0.0 0.0 Plea 0.00 29.871
07/03/2006 3:50 a 70.0 68.3 68.3 68.3 68.3 100 68.3 0.0 0.0 Plea 0.00 29.873
07/03/2006 4:00 a 70.0 68.3 68.3 68.3 68.3 100 68.3 0.0 0.0 Plea 0.00 29.871
07/03/2006 4:10 a 70.0 68.3 68.3 68.3 68.2 100 68.3 0.0 0.0 Plea 0.00 29.871
07/03/2006 4:20 a 70.0 68.2 68.2 68.2 68.1 100 68.2 0.0 0.0 Plea 0.00 29.867
07/03/2006 4:30 a 70.0 68.2 68.2 68.3 68.1 100 68.2 0.0 0.0 Plea 0.00 29.873
07/03/2006 4:40 a 70.0 68.2 68.2 68.3 68.2 100 68.2 0.0 0.0 Plea 0.00 29.873
07/03/2006 4:50 a 70.0 68.3 68.3 68.4 68.2 100 68.3 0.0 0.0 Plea 0.00 29.878
07/03/2006 5:00 a 70.0 68.4 68.4 68.5 68.3 100 68.4 0.0 0.0 Plea 0.00 29.885
07/03/2006 5:10 a 72.0 68.5 68.5 68.5 68.4 100 68.5 0.0 0.0 Plea 0.00 29.885
07/03/2006 5:20 a 72.0 68.5 68.5 68.5 68.4 100 68.5 0.0 0.0 Plea 0.00 29.896
07/03/2006 5:30 a 72.0 68.5 68.5 68.5 68.5 100 68.5 0.0 0.0 Plea 0.00 29.895
07/03/2006 5:40 a 72.0 68.5 68.5 68.6 68.5 100 68.5 0.0 0.0 Plea 0.00 29.902
07/03/2006 5:50 a 72.0 68.6 68.6 68.8 68.5 100 68.6 0.0 0.0 Plea 0.00 29.900
07/03/2006 6:00 a 72.0 68.8 68.8 68.9 68.7 100 68.8 0.0 0.0 Plea 0.00 29.897
07/03/2006 6:10 a 72.0 69.0 69.0 69.1 68.9 100 69.0 0.0 0.0 Plea 0.00 29.905
07/03/2006 6:20 a 72.0 69.1 69.1 69.1 69.0 100 69.1 0.0 0.0 Plea 0.00 29.901
07/03/2006 6:30 a 72.0 69.1 69.1 69.2 69.1 100 69.1 0.0 0.0 Plea 0.00 29.908
07/03/2006 6:40 a 72.0 69.2 69.2 69.3 69.2 100 69.2 0.0 0.0 Plea 0.00 29.906
07/03/2006 6:50 a 72.0 69.3 69.3 69.4 69.2 100 69.3 0.0 0.0 Plea 0.00 29.898
07/03/2006 7:00 a 72.0 69.4 69.4 69.5 69.3 100 69.4 0.0 0.0 Plea 0.00 29.901
07/03/2006 7:10 a 74.0 69.6 69.6 69.7 69.4 100 69.6 0.0 0.0 Plea 0.00 29.904
07/03/2006 7:20 a 74.0 69.8 69.8 69.9 69.7 100 69.8 0.0 0.0 Plea 0.00 29.902
07/03/2006 7:30 a 74.0 70.0 70.0 70.1 69.9 100 70.0 0.0 0.0 Plea 0.00 29.900
07/03/2006 7:40 a 74.0 70.2 70.2 70.3 70.1 100 70.2 0.0 0.0 Plea 0.00 29.902
07/03/2006 7:50 a 74.0 70.4 70.4 70.5 70.3 100 70.4 0.0 0.0 Plea 0.00 29.901
07/03/2006 8:00 a 75.0 70.6 70.6 70.8 70.5 100 70.6 0.0 0.0 Plea 0.00 29.901
07/03/2006 8:10 a 74.6 71.0 71.0 71.2 70.8 98 70.4 0.0 0.0 Plea 0.00 29.903
07/03/2006 8:20 a 74.4 71.4 71.4 71.6 71.2 97 70.5 0.0 0.0 Plea 0.00 29.907
07/03/2006 8:30 a 75.0 71.8 71.8 72.0 71.6 95 70.3 0.0 0.0 Plea 0.00 29.913
07/03/2006 8:40 a 74.6 72.2 72.2 72.4 72.0 93 70.1 0.0 0.0 Plea 0.00 29.912
07/03/2006 8:50 a 75.0 72.6 72.6 72.7 72.4 90 69.5 0.0 0.0 Plea 0.00 29.911
07/03/2006 9:00 a 75.0 72.9 72.9 73.1 72.7 89 69.5 0.0 0.0 Plea 0.00 29.915
07/03/2006 9:10 a 75.0 73.3 73.3 73.5 73.1 89 69.9 0.0 0.0 Plea 0.00 29.916
07/03/2006 9:20 a 76.0 73.7 73.7 73.8 73.5 87 69.6 0.0 0.0 Plea 0.00 29.920
07/03/2006 9:30 a 76.0 74.1 74.1 74.4 73.8 86 69.6 0.0 0.0 Plea 0.00 29.912
07/03/2006 9:40 a 77.4 74.6 74.6 74.8 74.3 84 69.4 0.0 0.0 Plea 0.00 29.911
07/03/2006 9:50 a 77.2 75.2 75.2 75.7 74.8 82 69.3 0.0 2.0 E 0.00 29.913
07/03/2006 10:00 a 79.1 76.3 76.3 76.8 75.8 81 70.0 0.0 2.0 NE 0.00 29.910
07/03/2006 10:10 a 80.8 77.2 77.2 77.5 76.8 79 70.2 0.0 2.0 NE 0.00 29.913
07/03/2006 10:20 a 81.6 77.7 77.7 77.9 77.5 78 70.3 0.0 1.0 NNE 0.00 29.907
07/03/2006 10:30 a 81.4 78.3 78.3 78.6 77.9 77 70.5 0.0 2.0 NNE 0.00 29.909
07/03/2006 10:40 a 81.6 78.9 78.9 79.3 78.6 73 69.5 0.0 0.0 Plea 0.00 29.904
07/03/2006 10:50 a 83.0 79.6 79.6 79.8 79.3 70 69.0 0.0 2.0 NE 0.00 29.904
07/03/2006 11:00 a 83.0 80.0 80.0 80.1 79.8 70 69.3 0.0 1.0 Plea 0.00 29.901
07/03/2006 11:10 a 82.8 80.3 80.3 80.7 80.1 68 68.8 0.0 2.0 N 0.00 29.902
07/03/2006 11:20 a 84.6 80.9 80.9 81.1 80.7 68 69.3 0.0 1.0 N 0.00 29.899
07/03/2006 11:30 a 84.2 81.3 81.3 81.5 81.1 66 68.9 0.0 2.0 N 0.00 29.896
07/03/2006 11:40 a 85.5 81.7 81.7 82.0 81.5 65 68.8 0.0 0.0 Plea 0.00 29.898
07/03/2006 11:50 a 85.5 82.3 82.3 82.6 82.0 65 69.4 0.0 1.0 N 0.00 29.898
07/03/2006 12:00 p 87.4 82.9 82.9 83.2 82.6 66 70.4 0.0 1.0 N 0.00 29.899
07/03/2006 12:10 p 88.2 83.5 83.5 83.8 83.2 63 69.6 0.0 2.0 N 0.00 29.899
07/03/2006 12:20 p 88.2 84.2 84.2 84.6 83.9 63 70.2 0.0 2.0 NNE 0.00 29.898
07/03/2006 12:30 p 90.6 84.7 84.7 84.9 84.5 64 71.2 0.0 2.0 ENE 0.00 29.902
07/03/2006 12:40 p 90.2 85.3 85.3 85.5 84.9 63 71.3 0.0 3.0 ENE 0.00 29.895
07/03/2006 12:50 p 91.8 85.8 85.8 86.1 85.5 62 71.3 0.0 0.0 Plea 0.00 29.886
07/03/2006 1:00 p 90.7 86.2 86.2 86.3 86.1 59 70.2 0.0 2.0 ENE 0.00 29.882
07/03/2006 1:10 p 91.4 86.3 86.3 86.5 86.2 61 71.3 0.0 1.0 ENE 0.00 29.879
07/03/2006 1:20 p 92.4 86.6 86.6 86.8 86.5 58 70.1 0.0 3.0 ESE 0.00 29.877
07/03/2006 1:30 p 93.0 87.1 87.1 87.3 86.8 60 71.5 0.0 2.0 ESE 0.00 29.877
07/03/2006 1:40 p 94.4 87.5 87.5 87.7 87.3 58 70.9 0.0 1.0 ESE 0.00 29.876
07/03/2006 1:50 p 94.1 87.8 87.8 87.9 87.7 57 70.7 0.0 4.0 SW 0.00 29.872
07/03/2006 2:00 p 94.1 88.0 88.0 88.2 87.8 57 70.9 0.0 4.0 ESE 0.00 29.869
07/03/2006 2:10 p 94.4 88.2 88.2 88.2 88.1 58 71.6 0.0 3.0 ESE 0.00 29.863
07/03/2006 2:20 p 95.2 88.5 88.5 88.6 88.2 54 69.7 0.0 4.0 S 0.00 29.860
07/03/2006 2:30 p 93.5 88.2 88.2 88.6 87.5 55 70.0 0.0 2.0 SE 0.00 29.859
07/03/2006 2:40 p 91.8 87.3 87.3 87.5 87.2 56 69.7 0.0 3.0 E 0.00 29.856
07/03/2006 2:50 p 92.1 87.4 87.4 87.6 87.3 57 70.3 0.0 2.0 E 0.00 29.853
07/03/2006 3:00 p 93.5 87.8 87.8 87.9 87.6 55 69.6 0.0 2.0 NNW 0.00 29.853
07/03/2006 3:10 p 93.8 87.7 87.7 87.9 87.1 56 70.1 0.0 3.0 ENE 0.00 29.853
07/03/2006 3:20 p 92.1 86.8 86.8 87.1 86.6 57 69.7 0.0 2.0 ENE 0.00 29.851
07/03/2006 3:30 p 91.8 87.0 87.0 87.4 86.7 56 69.4 0.0 2.0 NE 0.00 29.850
07/03/2006 3:40 p 94.4 87.7 87.7 87.8 87.4 58 71.1 0.0 1.0 NNE 0.00 29.847
07/03/2006 3:50 p 93.5 87.8 87.8 87.9 87.8 55 69.6 0.0 2.0 ESE 0.00 29.846
07/03/2006 4:00 p 92.9 88.0 88.0 88.2 87.9 53 68.7 0.0 3.0 ESE 0.00 29.849
07/03/2006 4:10 p 92.9 88.2 88.2 88.2 88.1 53 68.9 0.0 1.0 NNW 0.00 29.844
07/03/2006 4:20 p 93.5 88.1 88.1 88.2 87.9 55 69.9 0.0 3.0 NNE 0.00 29.849
07/03/2006 4:30 p 94.1 87.7 87.7 88.0 87.3 57 70.6 0.0 1.0 NE 0.00 29.848
07/03/2006 4:40 p 92.7 86.7 86.7 87.3 86.2 59 70.7 0.0 0.0 Plea 0.00 29.845
07/03/2006 4:50 p 91.4 85.7 85.7 86.2 85.3 61 70.7 0.0 1.0 Plea 0.00 29.841
07/03/2006 5:00 p 89.8 85.2 85.2 85.3 85.0 62 70.7 0.0 2.0 NNE 0.00 29.844
07/03/2006 5:10 p 90.2 84.9 84.9 85.0 84.8 63 70.9 0.0 0.0 Plea 0.00 29.843
07/03/2006 5:30 p 90.2 84.6 84.6 84.7 84.6 63 70.6 0.0 2.0 ENE 0.00 29.839
07/03/2006 5:40 p 90.2 84.7 84.7 84.8 84.6 63 70.7 0.0 0.0 Plea 0.00 29.839
07/03/2006 5:50 p 90.2 84.9 84.9 85.1 84.8 63 70.9 0.0 1.0 ENE 0.00 29.840
07/03/2006 6:00 p 89.8 85.1 85.1 85.1 85.0 62 70.6 0.0 0.0 Plea 0.00 29.832
07/03/2006 6:10 p 90.6 84.9 84.9 85.1 84.8 64 71.4 0.0 0.0 Plea 0.00 29.834
07/03/2006 6:20 p 89.8 84.7 84.7 84.8 84.6 62 70.2 0.0 1.0 Plea 0.00 29.832
07/03/2006 6:30 p 89.4 84.7 84.7 84.7 84.6 61 69.8 0.0 1.0 ENE 0.00 29.837
07/03/2006 6:40 p 89.4 84.6 84.6 84.6 84.5 61 69.7 0.0 1.0 ENE 0.00 29.836
07/03/2006 6:50 p 90.2 84.6 84.6 84.6 84.5 63 70.6 0.0 0.0 Plea 0.00 29.834
07/03/2006 7:00 p 88.6 84.3 84.3 84.5 84.1 64 70.8 0.0 0.0 Plea 0.00 29.835
07/03/2006 7:10 p 88.6 83.9 83.9 84.1 83.7 64 70.4 0.0 0.0 Plea 0.00 29.834
07/03/2006 7:20 p 89.0 83.6 83.6 83.8 83.4 65 70.6 0.0 0.0 Plea 0.00 29.830
07/03/2006 7:30 p 87.4 83.4 83.4 83.5 83.3 66 70.8 0.0 0.0 Plea 0.00 29.828
07/03/2006 7:50 p 87.4 82.9 82.9 83.0 82.7 66 70.4 0.0 0.0 Plea 0.00 29.832
07/03/2006 8:00 p 87.0 82.6 82.6 82.7 82.4 65 69.6 0.0 0.0 Plea 0.00 29.836
07/03/2006 8:10 p 86.1 82.3 82.3 82.5 82.2 67 70.2 0.0 0.0 Plea 0.00 29.838
07/03/2006 8:20 p 86.1 82.1 82.1 82.2 81.9 67 70.1 0.0 0.0 Plea 0.00 29.837
07/03/2006 8:30 p 86.4 81.8 81.8 82.0 81.6 68 70.2 0.0 0.0 Plea 0.00 29.843
07/03/2006 8:40 p 84.8 81.4 81.4 81.6 81.1 69 70.2 0.0 0.0 Plea 0.00 29.846
07/03/2006 8:50 p 85.0 80.9 80.9 81.1 80.7 70 70.2 0.0 0.0 Plea 0.00 29.844
07/03/2006 9:00 p 83.4 80.4 80.4 80.7 80.2 72 70.5 0.0 0.0 Plea 0.00 29.848
07/03/2006 9:10 p 83.6 79.9 79.9 80.2 79.7 73 70.5 0.0 0.0 Plea 0.00 29.854
07/03/2006 9:20 p 81.6 79.4 79.4 79.7 79.2 73 70.0 0.0 0.0 Plea 0.00 29.852
07/03/2006 9:30 p 81.8 79.0 79.0 79.2 78.8 74 70.0 0.0 0.0 Plea 0.00 29.854
07/03/2006 9:40 p 82.0 78.6 78.6 78.9 78.4 75 70.0 0.0 0.0 Plea 0.00 29.861
07/03/2006 9:50 p 81.2 78.2 78.2 78.4 77.9 76 70.0 0.0 0.0 Plea 0.00 29.863
07/03/2006 10:00 p 81.4 77.8 77.8 77.9 77.6 77 70.0 0.0 0.0 Plea 0.00 29.863
07/03/2006 10:10 p 81.6 77.5 77.5 77.7 77.4 78 70.1 0.0 0.0 Plea 0.00 29.862
07/03/2006 10:20 p 80.8 77.2 77.2 77.4 77.0 79 70.2 0.0 0.0 Plea 0.00 29.862
07/03/2006 10:30 p 81.0 76.7 76.7 77.0 76.4 80 70.1 0.0 0.0 Plea 0.00 29.865
07/03/2006 10:40 p 79.1 76.3 76.3 76.5 76.1 81 70.0 0.0 0.0 Plea 0.00 29.868
07/03/2006 10:50 p 79.2 76.0 76.0 76.1 76.0 82 70.1 0.0 0.0 Plea 0.00 29.866
07/03/2006 11:00 p 79.1 76.0 76.0 76.1 75.9 81 69.7 0.0 0.0 Plea 0.00 29.865
07/03/2006 11:10 p 79.2 76.1 76.1 76.2 76.0 82 70.2 0.0 0.0 Plea 0.00 29.861
07/03/2006 11:20 p 79.2 76.1 76.1 76.3 76.0 82 70.2 0.0 0.0 Plea 0.00 29.860
07/03/2006 11:30 p 81.0 76.5 76.5 76.7 76.2 82 70.6 0.0 0.0 Plea 0.00 29.849
07/03/2006 11:40 p 81.0 76.7 76.7 76.8 76.7 82 70.8 0.0 0.0 Plea 0.00 29.853
07/03/2006 11:50 p 81.0 76.6 76.6 76.8 76.4 82 70.7 0.0 0.0 Plea 0.00 29.853
07/04/2006 12:00 a 79.2 76.4 76.4 76.4 76.3 82 70.5 0.0 0.0 Plea 0.00 29.854
07/04/2006 12:10 a 79.3 76.2 76.2 76.3 76.1 83 70.7 0.0 0.0 Plea 0.00 29.852
07/04/2006 12:20 a 79.3 76.0 76.0 76.2 75.9 83 70.5 0.0 0.0 Plea 0.00 29.845
07/04/2006 12:30 a 79.3 75.9 75.9 75.9 75.9 83 70.4 0.0 0.0 Plea 0.00 29.843
07/04/2006 12:40 a 79.4 75.9 75.9 75.9 75.8 84 70.7 0.0 0.0 Plea 0.00 29.842
07/04/2006 12:50 a 79.4 75.7 75.7 75.8 75.6 84 70.5 0.0 0.0 Plea 0.00 29.844
07/04/2006 1:00 a 79.5 75.5 75.5 75.7 75.2 85 70.7 0.0 0.0 Plea 0.00 29.848
07/04/2006 1:10 a 77.5 75.0 75.0 75.2 74.9 85 70.2 0.0 0.0 Plea 0.00 29.847
07/04/2006 1:20 a 77.6 74.7 74.7 74.9 74.5 86 70.2 0.0 0.0 Plea 0.00 29.847
07/04/2006 1:30 a 76.0 74.3 74.3 74.5 74.2 87 70.2 0.0 0.0 Plea 0.00 29.847
07/04/2006 1:40 a 76.0 74.1 74.1 74.2 74.0 88 70.3 0.0 0.0 Plea 0.00 29.846
07/04/2006 1:50 a 76.0 73.9 73.9 74.0 73.8 88 70.1 0.0 0.0 Plea 0.00 29.846
07/04/2006 2:00 a 76.0 73.7 73.7 73.8 73.5 89 70.3 0.0 0.0 Plea 0.00 29.842
07/04/2006 2:10 a 75.0 73.4 73.4 73.5 73.3 90 70.3 0.0 0.0 Plea 0.00 29.843
07/04/2006 2:20 a 75.2 73.3 73.3 73.3 73.2 91 70.5 0.0 0.0 Plea 0.00 29.844
07/04/2006 2:30 a 75.4 73.2 73.2 73.3 73.2 92 70.7 0.0 0.0 Plea 0.00 29.840
07/04/2006 2:40 a 75.6 73.3 73.3 73.4 73.2 93 71.2 0.0 0.0 Plea 0.00 29.834
07/04/2006 2:50 a 76.4 73.5 73.5 73.6 73.3 92 71.0 0.0 0.0 Plea 0.00 29.833
07/04/2006 3:00 a 76.2 73.6 73.6 73.6 73.5 91 70.8 0.0 0.0 Plea 0.00 29.829
07/04/2006 3:10 a 76.4 73.5 73.5 73.6 73.3 92 71.0 0.0 0.0 Plea 0.00 29.828
07/04/2006 3:20 a 75.6 73.1 73.1 73.3 72.9 93 71.0 0.0 0.0 Plea 0.00 29.831
07/04/2006 3:30 a 75.8 72.8 72.8 72.9 72.6 94 71.0 0.0 0.0 Plea 0.00 29.834
07/04/2006 3:40 a 76.0 72.5 72.5 72.6 72.4 95 71.0 0.0 0.0 Plea 0.00 29.830
07/04/2006 3:50 a 75.0 72.4 72.4 72.4 72.3 95 70.9 0.0 0.0 Plea 0.00 29.829
07/04/2006 4:00 a 75.2 72.2 72.2 72.3 72.1 96 71.0 0.0 0.0 Plea 0.00 29.827
07/04/2006 4:10 a 75.4 72.1 72.1 72.2 72.1 97 71.2 0.0 0.0 Plea 0.00 29.828
07/04/2006 4:20 a 75.4 72.1 72.1 72.1 72.1 97 71.2 0.0 0.0 Plea 0.00 29.827
07/04/2006 4:30 a 75.4 72.1 72.1 72.2 72.1 97 71.2 0.0 0.0 Plea 0.00 29.831
07/04/2006 4:40 a 75.4 72.1 72.1 72.2 72.1 97 71.2 0.0 0.0 Plea 0.00 29.835
07/04/2006 4:50 a 75.6 72.1 72.1 72.1 72.1 98 71.5 0.0 0.0 Plea 0.00 29.832
07/04/2006 5:00 a 75.6 72.1 72.1 72.2 72.1 98 71.5 0.0 0.0 Plea 0.00 29.828
07/04/2006 5:10 a 75.6 72.2 72.2 72.3 72.1 98 71.6 0.0 0.0 Plea 0.00 29.829
07/04/2006 5:20 a 75.4 72.4 72.4 72.5 72.3 97 71.5 0.0 0.0 Plea 0.00 29.830
07/04/2006 5:30 a 76.4 72.6 72.6 72.6 72.5 97 71.7 0.0 0.0 Plea 0.00 29.826
07/04/2006 5:40 a 76.2 72.6 72.6 72.7 72.6 96 71.4 0.0 0.0 Plea 0.00 29.825
07/04/2006 5:50 a 76.2 72.6 72.6 72.6 72.5 96 71.4 0.0 0.0 Plea 0.00 29.826
07/04/2006 6:00 a 76.2 72.5 72.5 72.5 72.4 96 71.3 0.0 0.0 Plea 0.00 29.826
07/04/2006 6:10 a 75.2 72.4 72.4 72.5 72.4 96 71.2 0.0 0.0 Plea 0.00 29.826
07/04/2006 6:20 a 75.4 72.4 72.4 72.5 72.4 97 71.5 0.0 0.0 Plea 0.00 29.828
07/04/2006 6:30 a 76.2 72.6 72.6 72.7 72.5 96 71.4 0.0 0.0 Plea 0.00 29.825
07/04/2006 6:40 a 76.4 72.8 72.8 73.0 72.7 97 71.9 0.0 0.0 Plea 0.00 29.825
07/04/2006 6:50 a 76.4 73.1 73.1 73.2 73.0 97 72.2 0.0 0.0 Plea 0.00 29.822
07/04/2006 7:00 a 76.2 73.3 73.3 73.4 73.2 96 72.1 0.0 0.0 Plea 0.00 29.825
07/04/2006 7:10 a 77.2 73.5 73.5 73.6 73.4 96 72.3 0.0 0.0 Plea 0.00 29.825
07/04/2006 7:20 a 77.0 73.7 73.7 73.9 73.6 95 72.2 0.0 0.0 Plea 0.00 29.827
07/04/2006 7:30 a 76.8 74.0 74.0 74.1 73.8 94 72.2 0.0 0.0 Plea 0.00 29.824
07/04/2006 7:40 a 76.6 74.2 74.2 74.4 74.1 93 72.0 0.0 0.0 Plea 0.00 29.820
07/04/2006 7:50 a 78.1 74.5 74.5 74.7 74.4 91 71.7 0.0 0.0 Plea 0.00 29.827
07/04/2006 8:00 a 78.0 74.8 74.8 75.0 74.7 90 71.7 0.0 0.0 Plea 0.00 29.829
07/04/2006 8:10 a 77.9 75.1 75.1 75.3 75.0 89 71.6 0.0 0.0 Plea 0.00 29.830
07/04/2006 8:20 a 79.7 75.5 75.5 75.7 75.2 87 71.4 0.0 0.0 Plea 0.00 29.829
07/04/2006 8:30 a 79.7 76.0 76.0 76.3 75.7 87 71.8 0.0 0.0 Plea 0.00 29.828
07/04/2006 8:40 a 81.0 76.6 76.6 76.9 76.3 85 71.7 0.0 0.0 Plea 0.00 29.827
07/04/2006 8:50 a 81.0 77.2 77.2 77.5 76.9 82 71.3 0.0 0.0 Plea 0.00 29.824
07/04/2006 9:00 a 82.1 77.8 77.8 78.2 77.5 81 71.5 0.0 0.0 Plea 0.00 29.823
07/04/2006 9:10 a 82.8 78.5 78.5 78.7 78.2 79 71.4 0.0 0.0 Plea 0.00 29.821
07/04/2006 9:20 a 82.6 79.0 79.0 79.4 78.7 78 71.6 0.0 0.0 Plea 0.00 29.817
07/04/2006 9:30 a 84.2 79.7 79.7 79.9 79.3 76 71.5 0.0 0.0 Plea 0.00 29.819
07/04/2006 9:40 a 84.4 80.1 80.1 80.2 79.9 77 72.2 0.0 0.0 Plea 0.00 29.810
07/04/2006 9:50 a 84.4 80.2 80.2 80.3 80.1 77 72.3 0.0 0.0 Plea 0.00 29.810
07/04/2006 10:00 a 84.6 80.2 80.2 80.3 80.1 78 72.7 0.0 0.0 Plea 0.00 29.814
07/04/2006 10:10 a 84.2 80.4 80.4 80.5 80.2 76 72.1 0.0 0.0 Plea 0.00 29.811
07/04/2006 10:20 a 86.4 80.7 80.7 80.8 80.5 77 72.8 0.0 0.0 Plea 0.00 29.809
07/04/2006 10:30 a 86.4 81.0 81.0 81.2 80.8 77 73.1 0.0 0.0 Plea 0.00 29.814
07/04/2006 10:40 a 85.6 81.4 81.4 81.7 81.2 73 71.9 0.0 0.0 Plea 0.00 29.807
07/04/2006 10:50 a 87.0 81.9 81.9 82.2 81.7 70 71.2 0.0 0.0 Plea 0.00 29.805
07/04/2006 11:00 a 89.0 82.5 82.5 82.7 82.2 70 71.7 0.0 2.0 NE 0.00 29.807
07/04/2006 11:10 a 89.2 82.8 82.8 83.0 82.7 71 72.4 0.0 2.0 NNE 0.00 29.806
07/04/2006 11:20 a 88.6 83.2 83.2 83.5 83.0 69 72.0 0.0 1.0 NNE 0.00 29.800
07/04/2006 11:30 a 90.6 83.7 83.7 83.8 83.5 69 72.4 0.0 1.0 NNE 0.00 29.797
07/04/2006 11:40 a 90.6 83.5 83.5 83.7 83.3 69 72.3 0.0 1.0 NNE 0.00 29.802
07/04/2006 11:50 a 89.2 83.2 83.2 83.3 83.1 71 72.8 0.0 1.0 NNE 0.00 29.803
07/04/2006 12:00 p 87.8 83.1 83.1 83.2 82.9 67 71.0 0.0 3.0 SSE 0.00 29.802
07/04/2006 12:10 p 89.2 83.0 83.0 83.3 82.9 71 72.6 0.0 1.0 SE 0.00 29.794
07/04/2006 12:20 p 90.2 83.7 83.7 84.0 83.3 68 72.0 0.0 1.0 SSE 0.00 29.786
07/04/2006 12:30 p 89.8 84.2 84.2 84.4 84.0 67 72.0 0.0 2.0 SSE 0.00 29.784
07/04/2006 12:40 p 91.8 84.5 84.5 84.6 84.4 67 72.3 0.0 1.0 SSE 0.00 29.783
07/04/2006 12:50 p 91.0 84.6 84.6 84.6 84.4 65 71.5 0.0 1.0 SSE 0.00 29.776
07/04/2006 1:00 p 89.0 84.4 84.4 84.5 84.4 65 71.3 0.0 2.0 SSE 0.00 29.779
07/04/2006 1:10 p 90.6 84.5 84.5 84.8 84.4 64 71.0 0.0 0.0 Plea 0.00 29.775
07/04/2006 1:20 p 90.2 85.4 85.4 86.0 84.8 63 71.4 0.0 4.0 ESE 0.00 29.769
07/04/2006 1:30 p 92.7 86.6 86.6 87.2 86.0 59 70.6 0.0 2.0 SW 0.00 29.763
07/04/2006 1:40 p 93.0 87.4 87.4 87.5 87.2 60 71.8 0.0 3.0 SW 0.00 29.758
07/04/2006 1:50 p 93.4 87.3 87.3 87.5 87.2 61 72.2 0.0 3.0 ESE 0.00 29.755
07/04/2006 2:00 p 94.4 87.9 87.9 88.1 87.4 58 71.3 0.0 3.0 SSW 0.00 29.759
07/04/2006 2:10 p 95.4 88.0 88.0 88.1 87.8 61 72.9 0.0 2.0 SSW 0.00 29.751
07/04/2006 2:20 p 95.4 87.5 87.5 87.8 87.2 61 72.4 0.0 2.0 SSW 0.00 29.751
07/04/2006 2:30 p 94.6 86.8 86.8 87.2 86.5 64 73.2 0.0 1.0 SSW 0.00 29.745
07/04/2006 2:40 p 92.2 86.4 86.4 86.5 86.2 63 72.3 0.0 1.0 SSW 0.00 29.742
07/04/2006 2:50 p 93.0 86.0 86.0 86.2 85.8 65 72.9 0.0 1.0 SSW 0.00 29.738
07/04/2006 3:00 p 92.6 85.7 85.7 85.8 85.6 64 72.1 0.0 2.0 N 0.00 29.742
07/04/2006 3:10 p 93.4 85.7 85.7 85.7 85.6 66 73.0 0.0 1.0 Plea 0.00 29.741
07/04/2006 3:20 p 91.4 85.3 85.3 85.6 85.0 66 72.6 0.0 2.0 N 0.00 29.746
07/04/2006 3:30 p 91.8 84.7 84.7 85.0 84.4 67 72.5 0.0 0.0 Plea 0.00 29.745
07/04/2006 3:40 p 90.6 84.1 84.1 84.5 83.8 69 72.8 0.0 0.0 Plea 0.00 29.737
07/04/2006 3:50 p 90.2 83.6 83.6 83.9 83.3 68 71.9 0.0 2.0 N 0.00 29.729
07/04/2006 4:00 p 88.6 83.4 83.4 83.5 83.3 69 72.2 0.0 2.0 NNW 0.00 29.731
07/04/2006 4:10 p 86.9 83.6 83.6 83.8 83.3 59 67.8 1.0 8.0 ESE 0.00 29.754
07/04/2006 4:20 p 84.3 82.0 82.0 83.3 80.8 61 67.2 1.0 3.0 ESE 0.00 29.753
07/04/2006 4:30 p 83.2 79.8 79.8 80.8 79.1 71 69.6 0.0 3.0 ESE 0.01 29.756
07/04/2006 4:40 p 81.8 77.7 77.7 79.0 76.7 79 70.7 0.0 1.0 ESE 0.00 29.754
07/04/2006 4:50 p 78.9 76.4 76.4 76.7 76.3 79 69.4 0.0 2.0 ESE 0.00 29.740
07/04/2006 5:00 p 80.6 76.8 76.8 77.1 76.5 78 69.4 0.0 0.0 Plea 0.00 29.732
07/04/2006 5:10 p 81.6 77.5 77.5 77.9 77.1 78 70.1 0.0 0.0 Plea 0.00 29.726
07/04/2006 5:20 p 81.6 78.3 78.3 78.7 77.8 78 70.9 0.0 0.0 Plea 0.00 29.728
07/04/2006 5:30 p 82.0 79.1 79.1 79.4 78.8 75 70.5 0.0 0.0 Plea 0.00 29.731
07/04/2006 5:40 p 84.4 79.6 79.6 79.8 79.4 77 71.8 0.0 0.0 Plea 0.00 29.726
07/04/2006 5:50 p 83.8 80.0 80.0 80.1 79.8 74 71.0 0.0 1.0 Plea 0.00 29.721
07/04/2006 6:00 p 83.4 80.2 80.2 80.3 80.1 72 70.4 0.0 1.0 ESE 0.00 29.718
07/04/2006 6:10 p 83.2 80.2 80.2 80.3 80.1 71 69.9 0.0 1.0 ESE 0.00 29.714
07/04/2006 6:20 p 83.2 80.0 80.0 80.1 79.9 71 69.7 0.0 0.0 Plea 0.00 29.721
07/04/2006 6:30 p 82.9 80.1 80.1 80.1 79.9 69 69.0 0.0 1.0 E 0.00 29.726
07/04/2006 6:40 p 83.0 79.9 79.9 80.1 79.7 70 69.2 0.0 1.0 NE 0.00 29.729
07/04/2006 7:00 p 81.6 79.3 79.3 79.4 79.1 73 69.9 0.0 0.0 Plea 0.00 29.730
07/04/2006 7:10 p 81.6 79.0 79.0 79.1 78.9 73 69.6 0.0 0.0 Plea 0.00 29.730
07/04/2006 7:20 p 81.8 78.9 78.9 78.9 78.9 74 69.9 0.0 0.0 Plea 0.00 29.735
07/04/2006 7:30 p 82.0 78.8 78.8 78.9 78.6 75 70.2 0.0 0.0 Plea 0.00 29.722
07/04/2006 7:40 p 82.0 78.5 78.5 78.6 78.4 75 69.9 0.0 0.0 Plea 0.00 29.722
07/04/2006 7:50 p 81.0 78.4 78.4 78.4 78.3 75 69.8 0.0 0.0 Plea 0.00 29.720
07/04/2006 8:00 p 81.0 78.4 78.4 78.4 78.3 75 69.8 0.0 0.0 Plea 0.00 29.719
07/04/2006 8:10 p 81.2 78.3 78.3 78.4 78.3 76 70.1 0.0 0.0 Plea 0.00 29.724
07/04/2006 8:20 p 81.2 78.2 78.2 78.3 78.1 76 70.0 0.0 0.0 Plea 0.00 29.727
07/04/2006 8:30 p 81.4 78.1 78.1 78.2 78.0 77 70.3 0.0 0.0 Plea 0.00 29.727
07/04/2006 8:40 p 81.6 77.9 77.9 78.0 77.8 78 70.5 0.0 0.0 Plea 0.00 29.732
07/04/2006 8:50 p 81.6 77.8 77.8 77.9 77.7 78 70.4 0.0 0.0 Plea 0.00 29.729
07/04/2006 9:00 p 81.6 77.6 77.6 77.7 77.5 78 70.2 0.0 0.0 Plea 0.00 29.731
07/04/2006 9:10 p 81.6 77.5 77.5 77.6 77.4 78 70.1 0.0 0.0 Plea 0.00 29.732
07/04/2006 9:20 p 80.6 77.4 77.4 77.5 77.3 78 70.0 0.0 0.0 Plea 0.00 29.731
07/04/2006 9:30 p 80.6 77.2 77.2 77.3 77.1 78 69.8 0.0 0.0 Plea 0.00 29.740
07/04/2006 9:40 p 80.6 77.1 77.1 77.2 77.0 78 69.7 0.0 0.0 Plea 0.00 29.743
07/04/2006 9:50 p 80.8 77.0 77.0 77.0 76.9 79 70.0 0.0 0.0 Plea 0.00 29.749
07/04/2006 10:00 p 80.8 76.9 76.9 77.0 76.9 79 69.9 0.0 0.0 Plea 0.00 29.755
07/04/2006 10:10 p 81.0 76.9 76.9 76.9 76.8 80 70.3 0.0 0.0 Plea 0.00 29.757
07/04/2006 10:20 p 81.0 76.7 76.7 76.8 76.7 80 70.1 0.0 0.0 Plea 0.00 29.759
07/04/2006 10:30 p 81.0 76.7 76.7 76.7 76.6 81 70.4 0.0 0.0 Plea 0.00 29.756
07/04/2006 10:40 p 81.0 76.6 76.6 76.7 76.6 81 70.3 0.0 0.0 Plea 0.00 29.756
07/04/2006 10:50 p 81.0 76.6 76.6 76.7 76.6 80 70.0 0.0 0.0 Plea 0.00 29.763
07/04/2006 11:00 p 81.0 76.6 76.6 76.7 76.6 82 70.7 0.0 0.0 Plea 0.00 29.757
07/04/2006 11:10 p 81.0 76.5 76.5 76.6 76.4 82 70.6 0.0 0.0 Plea 0.00 29.758
07/04/2006 11:20 p 79.2 76.3 76.3 76.4 76.3 82 70.4 0.0 0.0 Plea 0.00 29.756
07/04/2006 11:30 p 79.2 76.2 76.2 76.3 76.2 82 70.3 0.0 0.0 Plea 0.00 29.750
07/04/2006 11:40 p 79.2 76.2 76.2 76.2 76.2 82 70.3 0.0 0.0 Plea 0.00 29.752
07/04/2006 11:50 p 79.2 76.2 76.2 76.2 76.1 82 70.3 0.0 0.0 Plea 0.00 29.754
07/05/2006 12:00 a 79.2 76.1 76.1 76.2 76.1 82 70.2 0.0 0.0 Plea 0.00 29.755
07/05/2006 12:10 a 79.1 76.2 76.2 76.2 76.1 81 69.9 0.0 0.0 Plea 0.00 29.756
07/05/2006 12:20 a 79.2 76.2 76.2 76.3 76.2 82 70.3 0.0 0.0 Plea 0.00 29.757
07/05/2006 12:30 a 79.2 76.2 76.2 76.2 76.1 82 70.3 0.0 0.0 Plea 0.00 29.760
07/05/2006 12:40 a 79.3 76.0 76.0 76.1 76.0 83 70.5 0.0 0.0 Plea 0.00 29.759
07/05/2006 12:50 a 79.4 75.9 75.9 76.0 75.8 84 70.7 0.0 0.0 Plea 0.00 29.758
07/05/2006 1:00 a 79.3 75.7 75.7 75.8 75.6 83 70.2 0.0 0.0 Plea 0.00 29.753
07/05/2006 1:10 a 79.2 75.5 75.5 75.6 75.4 82 69.6 0.0 0.0 Plea 0.00 29.748
07/05/2006 1:20 a 77.3 75.3 75.3 75.4 75.3 83 69.8 0.0 0.0 Plea 0.00 29.744
07/05/2006 1:30 a 77.2 75.2 75.2 75.3 75.1 82 69.3 0.0 0.0 Plea 0.00 29.746
07/05/2006 1:40 a 77.3 75.1 75.1 75.1 75.0 83 69.6 0.0 1.0 NE 0.00 29.751
07/05/2006 1:50 a 77.3 75.0 75.0 75.1 75.0 83 69.5 0.0 0.0 Plea 0.00 29.752
07/05/2006 2:00 a 77.2 75.0 75.0 75.1 74.9 82 69.1 0.0 0.0 Plea 0.00 29.745
07/05/2006 2:10 a 77.3 74.9 74.9 74.9 74.8 83 69.4 0.0 0.0 Plea 0.00 29.745
07/05/2006 2:20 a 77.3 74.8 74.8 74.8 74.7 83 69.3 0.0 0.0 Plea 0.00 29.747
07/05/2006 2:30 a 77.4 74.7 74.7 74.8 74.6 84 69.5 0.0 0.0 Plea 0.00 29.747
07/05/2006 2:40 a 77.4 74.5 74.5 74.6 74.4 84 69.3 0.0 0.0 Plea 0.00 29.746
07/05/2006 2:50 a 76.0 74.3 74.3 74.4 74.2 85 69.5 0.0 0.0 Plea 0.00 29.746
07/05/2006 3:00 a 76.0 74.2 74.2 74.2 74.1 85 69.4 0.0 0.0 Plea 0.00 29.745
07/05/2006 3:10 a 76.0 74.1 74.1 74.1 74.0 85 69.3 0.0 0.0 Plea 0.00 29.746
07/05/2006 3:20 a 76.0 74.0 74.0 74.1 73.9 86 69.5 0.0 0.0 Plea 0.00 29.749
07/05/2006 3:30 a 76.0 73.9 73.9 74.0 73.8 87 69.8 0.0 0.0 Plea 0.00 29.748
07/05/2006 3:40 a 76.0 73.7 73.7 73.8 73.7 87 69.6 0.0 0.0 Plea 0.00 29.746
07/05/2006 3:50 a 76.0 73.6 73.6 73.7 73.5 87 69.5 0.0 0.0 Plea 0.00 29.745
07/05/2006 4:00 a 76.0 73.5 73.5 73.6 73.4 88 69.7 0.0 0.0 Plea 0.00 29.742
07/05/2006 4:10 a 75.0 73.4 73.4 73.4 73.3 89 70.0 0.0 0.0 Plea 0.00 29.746
07/05/2006 4:20 a 75.0 73.3 73.3 73.4 73.3 89 69.9 0.0 0.0 Plea 0.00 29.741
07/05/2006 4:30 a 75.0 73.2 73.2 73.3 73.2 89 69.8 0.0 0.0 Plea 0.00 29.738
07/05/2006 4:40 a 75.0 73.1 73.1 73.2 73.1 89 69.7 0.0 0.0 Plea 0.00 29.744
07/05/2006 4:50 a 75.2 73.0 73.0 73.1 73.0 91 70.2 0.0 0.0 Plea 0.00 29.746
07/05/2006 5:00 a 75.4 73.0 73.0 73.0 72.9 92 70.5 0.0 0.0 Plea 0.00 29.749
07/05/2006 5:10 a 75.6 72.8 72.8 72.9 72.7 93 70.7 0.0 0.0 Plea 0.00 29.750
07/05/2006 5:20 a 75.8 72.7 72.7 72.8 72.6 94 70.9 0.0 0.0 Plea 0.00 29.754
07/05/2006 5:30 a 75.8 72.6 72.6 72.7 72.5 94 70.8 0.0 0.0 Plea 0.00 29.754
07/05/2006 5:40 a 76.0 72.5 72.5 72.5 72.4 95 71.0 0.0 0.0 Plea 0.00 29.754
07/05/2006 5:50 a 75.0 72.4 72.4 72.5 72.3 95 70.9 0.0 0.0 Plea 0.00 29.756
07/05/2006 6:00 a 75.2 72.3 72.3 72.4 72.3 96 71.1 0.0 0.0 Plea 0.00 29.753
07/05/2006 6:10 a 75.2 72.3 72.3 72.3 72.2 96 71.1 0.0 0.0 Plea 0.00 29.756
07/05/2006 6:20 a 75.2 72.3 72.3 72.4 72.3 96 71.1 0.0 0.0 Plea 0.00 29.754
07/05/2006 6:30 a 75.4 72.3 72.3 72.4 72.3 97 71.4 0.0 0.0 Plea 0.00 29.760
07/05/2006 6:40 a 75.4 72.4 72.4 72.4 72.3 97 71.5 0.0 0.0 Plea 0.00 29.759
07/05/2006 6:50 a 75.4 72.4 72.4 72.5 72.4 97 71.5 0.0 0.0 Plea 0.00 29.758
07/05/2006 7:00 a 76.6 72.5 72.5 72.6 72.5 98 71.9 0.0 0.0 Plea 0.00 29.759
07/05/2006 7:10 a 76.6 72.6 72.6 72.7 72.6 98 72.0 0.0 0.0 Plea 0.00 29.762
07/05/2006 7:20 a 76.4 72.7 72.7 72.8 72.7 97 71.8 0.0 0.0 Plea 0.00 29.764
07/05/2006 7:30 a 76.4 72.8 72.8 72.9 72.8 97 71.9 0.0 0.0 Plea 0.00 29.769
07/05/2006 7:40 a 76.4 72.9 72.9 73.0 72.9 97 72.0 0.0 0.0 Plea 0.00 29.768
07/05/2006 7:50 a 76.6 73.0 73.0 73.0 72.9 98 72.4 0.0 0.0 Plea 0.01 29.770
07/05/2006 8:00 a 76.6 73.0 73.0 73.0 72.9 98 72.4 0.0 0.0 Plea 0.03 29.770
07/05/2006 8:10 a 76.8 72.9 72.9 73.0 72.9 99 72.6 0.0 0.0 Plea 0.02 29.768
07/05/2006 8:20 a 77.0 72.9 72.9 72.9 72.8 100 72.9 0.0 0.0 Plea 0.04 29.761
07/05/2006 8:30 a 77.0 72.8 72.8 72.9 72.7 100 72.8 1.0 2.0 NE 0.39 29.769
07/05/2006 8:40 a 77.0 72.6 72.6 72.7 72.4 100 72.6 0.0 2.0 NE 0.02 29.783
07/05/2006 8:50 a 76.0 72.3 72.3 72.5 72.1 100 72.3 0.0 3.0 NE 0.01 29.778
07/05/2006 9:00 a 76.0 71.7 71.7 72.1 71.3 100 71.7 1.0 4.0 E 0.01 29.792
07/05/2006 9:10 a 74.8 70.7 70.7 71.2 70.3 99 70.4 0.0 3.0 E 0.01 29.788
07/05/2006 9:20 a 74.0 70.1 70.1 70.3 69.9 100 70.1 1.0 3.0 E 0.08 29.795
07/05/2006 9:30 a 74.0 69.7 69.7 69.9 69.5 100 69.7 0.0 3.0 E 0.23 29.801
07/05/2006 9:40 a 72.0 69.3 69.3 69.5 69.2 100 69.3 0.0 1.0 E 0.07 29.799
07/05/2006 9:50 a 72.0 69.2 69.2 69.3 69.2 100 69.2 0.0 0.0 Plea 0.04 29.798
07/05/2006 10:00 a 72.0 69.3 69.3 69.3 69.2 100 69.3 0.0 2.0 E 0.04 29.808
07/05/2006 10:10 a 72.0 69.3 69.3 69.4 69.3 100 69.3 0.0 1.0 Plea 0.10 29.801
07/05/2006 10:20 a 74.0 69.5 69.5 69.6 69.3 100 69.5 0.0 1.0 Plea 0.03 29.803
07/05/2006 10:30 a 74.0 69.5 69.5 69.6 69.4 100 69.5 0.0 0.0 Plea 0.03 29.794
07/05/2006 10:40 a 72.0 69.4 69.4 69.6 69.4 100 69.4 0.0 0.0 Plea 0.01 29.798
07/05/2006 10:50 a 74.0 69.7 69.7 69.8 69.6 100 69.7 0.0 0.0 Plea 0.00 29.803
07/05/2006 11:00 a 74.0 69.9 69.9 69.9 69.8 100 69.9 0.0 1.0 E 0.03 29.806
07/05/2006 11:10 a 74.0 69.8 69.8 69.9 69.7 100 69.8 0.0 0.0 Plea 0.08 29.800
07/05/2006 11:20 a 74.0 69.7 69.7 69.7 69.6 100 69.7 0.0 0.0 Plea 0.02 29.792
07/05/2006 11:30 a 74.0 69.8 69.8 69.9 69.7 100 69.8 0.0 1.0 E 0.01 29.795
07/05/2006 11:40 a 74.0 70.0 70.0 70.1 69.9 100 70.0 0.0 1.0 E 0.00 29.792
07/05/2006 11:50 a 75.0 70.5 70.5 70.8 70.1 100 70.5 0.0 2.0 E 0.00 29.795
07/05/2006 12:00 p 75.0 70.8 70.8 70.8 70.8 100 70.8 0.0 0.0 Plea 0.00 29.797
07/05/2006 12:10 p 75.0 70.8 70.8 71.1 70.7 100 70.8 0.0 1.0 E 0.00 29.804
07/05/2006 12:20 p 75.0 71.2 71.2 71.4 71.1 100 71.2 0.0 1.0 Plea 0.00 29.806
07/05/2006 12:30 p 76.0 71.6 71.6 71.7 71.4 100 71.6 0.0 1.0 Plea 0.00 29.804
07/05/2006 12:40 p 75.6 71.6 71.6 71.6 71.5 98 71.0 0.0 0.0 Plea 0.00 29.799
07/05/2006 12:50 p 75.4 71.8 71.8 72.0 71.6 97 70.9 0.0 1.0 Plea 0.00 29.796
07/05/2006 1:00 p 75.8 72.2 72.2 72.4 71.9 99 71.9 0.0 1.0 E 0.00 29.800
07/05/2006 1:10 p 74.8 72.4 72.4 72.5 72.4 94 70.6 0.0 0.0 Plea 0.00 29.798
07/05/2006 1:20 p 75.6 72.5 72.5 72.6 72.4 93 70.4 0.0 1.0 Plea 0.00 29.799
07/05/2006 1:30 p 75.8 72.7 72.7 72.9 72.6 94 70.9 0.0 0.0 Plea 0.00 29.800
07/05/2006 1:40 p 76.0 72.9 72.9 73.0 72.9 95 71.4 0.0 0.0 Plea 0.00 29.795
07/05/2006 1:50 p 75.8 73.1 73.1 73.2 73.0 94 71.3 0.0 0.0 Plea 0.00 29.796
07/05/2006 2:00 p 75.0 73.2 73.2 73.2 73.1 90 70.1 0.0 0.0 Plea 0.00 29.793
07/05/2006 2:10 p 76.0 73.3 73.3 73.5 73.1 95 71.8 0.0 0.0 Plea 0.00 29.792
07/05/2006 2:20 p 76.0 73.7 73.7 73.9 73.5 90 70.6 0.0 1.0 E 0.00 29.793
07/05/2006 2:30 p 76.2 74.0 74.0 74.2 73.8 91 71.2 0.0 0.0 Plea 0.00 29.793
07/05/2006 2:40 p 76.0 74.3 74.3 74.3 74.2 89 70.8 0.0 0.0 Plea 0.00 29.795
07/05/2006 2:50 p 76.0 74.4 74.4 74.6 74.3 90 71.3 0.0 1.0 E 0.00 29.793
07/05/2006 3:00 p 78.1 74.5 74.5 74.6 74.5 91 71.7 0.0 0.0 Plea 0.00 29.792
07/05/2006 3:10 p 76.0 74.4 74.4 74.5 74.3 89 70.9 0.0 0.0 Plea 0.00 29.790
07/05/2006 3:20 p 76.0 74.1 74.1 74.3 73.9 89 70.6 0.0 0.0 Plea 0.00 29.788
07/05/2006 3:30 p 76.0 73.9 73.9 74.0 73.8 89 70.5 0.0 0.0 Plea 0.00 29.783
07/05/2006 3:40 p 76.6 73.8 73.8 73.9 73.8 93 71.6 0.0 0.0 Plea 0.00 29.785
07/05/2006 3:50 p 76.4 73.8 73.8 73.9 73.8 92 71.3 0.0 0.0 Plea 0.00 29.778
07/05/2006 4:00 p 76.0 74.0 74.0 74.2 73.8 90 70.9 0.0 0.0 Plea 0.00 29.774
07/05/2006 4:10 p 77.7 74.6 74.6 75.0 74.2 87 70.5 0.0 0.0 Plea 0.00 29.779
07/05/2006 4:20 p 79.5 75.5 75.5 76.0 75.0 85 70.7 0.0 1.0 E 0.00 29.779
07/05/2006 4:30 p 79.1 76.2 76.2 76.4 76.0 81 69.9 0.0 2.0 E 0.00 29.778
07/05/2006 4:40 p 81.0 76.5 76.5 76.6 76.3 82 70.6 0.0 0.0 Plea 0.00 29.778
07/05/2006 4:50 p 81.0 76.8 76.8 77.0 76.6 81 70.5 0.0 1.0 E 0.00 29.777
07/05/2006 5:00 p 80.6 76.8 76.8 76.9 76.8 78 69.4 0.0 0.0 Plea 0.00 29.782
07/05/2006 5:10 p 80.8 76.9 76.9 76.9 76.8 79 69.9 0.0 0.0 Plea 0.00 29.777
07/05/2006 5:20 p 81.0 77.0 77.0 77.1 76.9 80 70.4 0.0 0.0 Plea 0.00 29.775
07/05/2006 5:30 p 80.8 76.9 76.9 77.0 76.8 79 69.9 0.0 0.0 Plea 0.00 29.774
07/05/2006 5:40 p 80.6 76.8 76.8 76.9 76.7 78 69.4 0.0 0.0 Plea 0.00 29.775
07/05/2006 5:50 p 80.4 76.9 76.9 76.9 76.8 77 69.1 0.0 0.0 Plea 0.00 29.778
07/05/2006 6:00 p 81.0 76.7 76.7 76.9 76.6 81 70.4 0.0 0.0 Plea 0.00 29.776
07/05/2006 6:10 p 81.0 76.5 76.5 76.6 76.4 83 70.9 0.0 0.0 Plea 0.00 29.776
07/05/2006 6:20 p 79.3 76.3 76.3 76.4 76.2 83 70.8 0.0 0.0 Plea 0.00 29.769
07/05/2006 6:30 p 79.2 76.1 76.1 76.2 76.1 82 70.2 0.0 0.0 Plea 0.00 29.765
07/05/2006 6:40 p 79.1 76.0 76.0 76.1 75.9 81 69.7 0.0 0.0 Plea 0.00 29.772
07/05/2006 6:50 p 79.1 75.9 75.9 76.0 75.8 81 69.6 0.0 0.0 Plea 0.00 29.777
07/05/2006 7:00 p 79.2 75.7 75.7 75.8 75.6 82 69.8 0.0 0.0 Plea 0.00 29.769
07/05/2006 7:10 p 79.4 75.5 75.5 75.6 75.4 84 70.3 0.0 0.0 Plea 0.00 29.773
07/05/2006 7:20 p 77.3 75.2 75.2 75.4 75.0 83 69.7 0.0 0.0 Plea 0.00 29.776
07/05/2006 7:30 p 77.5 74.8 74.8 75.0 74.7 85 70.0 0.0 0.0 Plea 0.00 29.771
07/05/2006 7:40 p 77.5 74.6 74.6 74.7 74.6 85 69.8 0.0 0.0 Plea 0.00 29.772
07/05/2006 7:50 p 77.6 74.5 74.5 74.6 74.3 86 70.0 0.0 0.0 Plea 0.00 29.770
07/05/2006 8:00 p 76.0 74.3 74.3 74.4 74.2 87 70.2 0.0 0.0 Plea 0.00 29.770
07/05/2006 8:10 p 76.0 74.2 74.2 74.3 74.1 88 70.4 0.0 0.0 Plea 0.00 29.774
07/05/2006 8:20 p 76.0 74.0 74.0 74.2 73.9 88 70.2 0.0 0.0 Plea 0.00 29.776
07/05/2006 8:30 p 76.0 73.8 73.8 73.9 73.7 88 70.0 0.0 0.0 Plea 0.00 29.775
07/05/2006 8:40 p 76.0 73.6 73.6 73.7 73.5 88 69.8 0.0 0.0 Plea 0.00 29.774
07/05/2006 8:50 p 75.0 73.4 73.4 73.5 73.2 90 70.3 0.0 0.0 Plea 0.00 29.777
07/05/2006 9:00 p 75.0 73.1 73.1 73.2 73.0 90 70.0 0.0 0.0 Plea 0.00 29.784
07/05/2006 9:10 p 75.0 72.9 72.9 73.0 72.9 90 69.8 0.0 0.0 Plea 0.00 29.790
07/05/2006 9:20 p 75.4 72.8 72.8 72.9 72.7 92 70.3 0.0 0.0 Plea 0.00 29.793
07/05/2006 9:30 p 75.0 72.6 72.6 72.7 72.5 90 69.5 0.0 0.0 Plea 0.00 29.795
07/05/2006 9:40 p 74.4 72.4 72.4 72.5 72.4 92 69.9 0.0 0.0 Plea 0.00 29.796
07/05/2006 9:50 p 74.8 72.3 72.3 72.4 72.3 94 70.5 0.0 0.0 Plea 0.00 29.795
07/05/2006 10:00 p 74.6 72.2 72.2 72.3 72.1 93 70.1 0.0 0.0 Plea 0.00 29.792
07/05/2006 10:10 p 74.8 72.1 72.1 72.2 71.9 94 70.3 0.0 0.0 Plea 0.00 29.792
07/05/2006 10:20 p 74.8 71.9 71.9 72.0 71.8 94 70.1 0.0 0.0 Plea 0.00 29.792
07/05/2006 10:30 p 75.0 71.9 71.9 71.9 71.8 95 70.4 0.0 0.0 Plea 0.00 29.796
07/05/2006 10:40 p 75.0 71.8 71.8 71.8 71.7 95 70.3 0.0 0.0 Plea 0.00 29.797
07/05/2006 10:50 p 75.2 71.7 71.7 71.7 71.7 96 70.5 0.0 0.0 Plea 0.00 29.795
07/05/2006 11:00 p 75.2 71.7 71.7 71.7 71.6 96 70.5 0.0 0.0 Plea 0.00 29.792
07/05/2006 11:10 p 75.2 71.6 71.6 71.7 71.6 96 70.4 0.0 0.0 Plea 0.00 29.796
07/05/2006 11:20 p 75.4 71.7 71.7 71.8 71.6 97 70.8 0.0 0.0 Plea 0.00 29.796
07/05/2006 11:30 p 75.6 71.8 71.8 71.8 71.7 98 71.2 0.0 0.0 Plea 0.00 29.795
07/05/2006 11:40 p 75.6 71.8 71.8 71.8 71.7 98 71.2 0.0 0.0 Plea 0.00 29.798
07/05/2006 11:50 p 75.6 71.8 71.8 71.8 71.7 98 71.2 0.0 0.0 Plea 0.00 29.794
07/06/2006 12:00 a 75.6 71.7 71.7 71.8 71.7 98 71.1 0.0 0.0 Plea 0.00 29.789
07/06/2006 12:10 a 75.6 71.7 71.7 71.7 71.6 98 71.1 0.0 0.0 Plea 0.00 29.783
07/06/2006 12:20 a 75.8 71.6 71.6 71.6 71.5 99 71.3 0.0 0.0 Plea 0.00 29.781
07/06/2006 12:30 a 76.0 71.5 71.5 71.6 71.5 100 71.5 0.0 0.0 Plea 0.00 29.782
07/06/2006 12:40 a 76.0 71.5 71.5 71.5 71.5 100 71.5 0.0 0.0 Plea 0.00 29.785
07/06/2006 12:50 a 75.0 71.4 71.4 71.5 71.3 100 71.4 0.0 0.0 Plea 0.00 29.781
07/06/2006 1:00 a 75.0 71.3 71.3 71.4 71.3 100 71.3 0.0 0.0 Plea 0.00 29.786
07/06/2006 1:10 a 75.0 71.3 71.3 71.3 71.2 100 71.3 0.0 0.0 Plea 0.01 29.786
07/06/2006 1:20 a 75.0 71.2 71.2 71.3 71.1 100 71.2 0.0 0.0 Plea 0.00 29.777
07/06/2006 1:30 a 75.0 71.1 71.1 71.2 71.0 100 71.1 0.0 0.0 Plea 0.01 29.782
07/06/2006 1:40 a 75.0 71.1 71.1 71.1 71.0 100 71.1 0.0 0.0 Plea 0.01 29.780
07/06/2006 1:50 a 75.0 71.0 71.0 71.1 71.0 100 71.0 0.0 0.0 Plea 0.00 29.779
07/06/2006 2:00 a 75.0 71.0 71.0 71.1 71.0 100 71.0 0.0 0.0 Plea 0.01 29.777
07/06/2006 2:10 a 75.0 71.1 71.1 71.1 71.0 100 71.1 0.0 0.0 Plea 0.00 29.772
07/06/2006 2:20 a 75.0 71.1 71.1 71.1 71.0 100 71.1 0.0 0.0 Plea 0.00 29.769
07/06/2006 2:30 a 75.0 71.0 71.0 71.1 71.0 100 71.0 0.0 0.0 Plea 0.00 29.769
07/06/2006 2:40 a 75.0 71.0 71.0 71.0 70.9 100 71.0 0.0 0.0 Plea 0.00 29.769
07/06/2006 2:50 a 75.0 70.9 70.9 70.9 70.9 100 70.9 0.0 0.0 Plea 0.01 29.777
07/06/2006 3:00 a 75.0 70.9 70.9 71.0 70.8 100 70.9 0.0 0.0 Plea 0.00 29.777
07/06/2006 3:10 a 75.0 70.7 70.7 71.0 70.3 100 70.7 1.0 3.0 E 0.00 29.784
07/06/2006 3:20 a 74.0 69.9 69.9 70.3 69.7 100 69.9 0.0 2.0 E 0.01 29.780
07/06/2006 3:30 a 74.0 69.5 69.5 69.7 69.3 100 69.5 0.0 2.0 E 0.01 29.779
07/06/2006 3:40 a 72.0 69.1 69.1 69.3 68.9 100 69.1 0.0 2.0 E 0.00 29.777
07/06/2006 3:50 a 72.0 68.8 68.8 69.0 68.6 100 68.8 0.0 0.0 Plea 0.01 29.779
07/06/2006 4:00 a 71.9 68.5 68.5 68.6 68.3 99 68.2 0.0 1.0 E 0.00 29.784
07/06/2006 4:10 a 70.0 68.1 68.1 68.3 67.9 99 67.8 0.0 1.0 E 0.01 29.779
07/06/2006 4:20 a 67.8 67.8 67.8 67.9 67.6 99 67.5 0.0 2.0 E 0.01 29.783
07/06/2006 4:30 a 67.4 67.4 67.4 67.6 67.3 99 67.1 0.0 1.0 E 0.00 29.782
07/06/2006 4:40 a 67.1 67.1 67.1 67.3 67.0 100 67.1 0.0 1.0 E 0.01 29.793
07/06/2006 4:50 a 66.9 66.9 66.9 67.0 66.7 100 66.9 0.0 1.0 E 0.01 29.797
07/06/2006 5:00 a 66.7 66.7 66.7 66.7 66.6 100 66.7 0.0 0.0 Plea 0.02 29.801
07/06/2006 5:10 a 66.6 66.6 66.6 66.6 66.5 100 66.6 0.0 0.0 Plea 0.03 29.805
07/06/2006 5:20 a 66.5 66.5 66.5 66.5 66.4 100 66.5 0.0 0.0 Plea 0.02 29.807
07/06/2006 5:30 a 66.4 66.4 66.4 66.5 66.4 100 66.4 0.0 0.0 Plea 0.01 29.814
07/06/2006 5:40 a 66.4 66.4 66.4 66.5 66.1 100 66.4 0.0 2.0 E 0.00 29.828
07/06/2006 5:50 a 65.6 65.6 65.6 66.1 65.3 99 65.3 0.0 2.0 E 0.01 29.839
07/06/2006 6:00 a 65.0 65.0 65.0 65.3 64.9 100 65.0 0.0 1.0 E 0.02 29.830
07/06/2006 6:10 a 64.8 64.8 64.8 64.9 64.6 100 64.8 0.0 1.0 E 0.01 29.857
07/06/2006 6:20 a 64.4 64.4 64.4 64.6 64.1 99 64.1 0.0 1.0 E 0.01 29.825
07/06/2006 6:30 a 63.9 63.9 63.9 64.1 63.7 100 63.9 0.0 2.0 E 0.00 29.844
07/06/2006 6:40 a 63.5 63.5 63.5 63.7 63.3 100 63.5 0.0 3.0 E 0.00 29.866
07/06/2006 6:50 a 63.2 63.2 63.2 63.4 63.1 100 63.2 0.0 2.0 E 0.00 29.854
07/06/2006 7:00 a 62.9 62.9 62.9 63.1 62.8 99 62.6 0.0 1.0 E 0.00 29.875
07/06/2006 7:10 a 62.7 62.7 62.7 62.8 62.6 100 62.7 0.0 1.0 E 0.00 29.859
07/06/2006 7:20 a 62.6 62.6 62.6 62.7 62.6 100 62.6 0.0 1.0 E 0.00 29.868
07/06/2006 7:30 a 62.7 62.7 62.7 62.8 62.7 100 62.7 0.0 0.0 Plea 0.00 29.871
07/06/2006 7:40 a 62.9 62.9 62.9 62.9 62.8 100 62.9 0.0 2.0 E 0.00 29.869
07/06/2006 7:50 a 62.9 62.9 62.9 63.0 62.9 100 62.9 0.0 1.0 E 0.00 29.879
07/06/2006 8:00 a 63.0 63.0 63.0 63.1 63.0 100 63.0 0.0 2.0 E 0.00 29.889
07/06/2006 8:10 a 63.1 63.1 63.1 63.2 63.0 100 63.1 0.0 1.0 E 0.00 29.888
07/06/2006 8:20 a 63.3 63.3 63.3 63.3 63.2 99 63.0 0.0 1.0 E 0.00 29.884
07/06/2006 8:30 a 63.3 63.3 63.3 63.4 63.3 97 62.4 0.0 2.0 E 0.00 29.889
07/06/2006 8:40 a 63.5 63.5 63.5 63.6 63.4 96 62.3 0.0 2.0 E 0.00 29.893
07/06/2006 8:50 a 63.7 63.7 63.7 63.9 63.6 96 62.5 0.0 1.0 E 0.00 29.891
07/06/2006 9:00 a 64.1 64.1 64.1 64.3 63.9 94 62.3 0.0 2.0 E 0.00 29.898
07/06/2006 9:10 a 64.4 64.4 64.4 64.5 64.2 90 61.4 0.0 0.0 Plea 0.00 29.893
07/06/2006 9:20 a 64.6 64.6 64.6 64.8 64.5 90 61.6 0.0 2.0 E 0.00 29.894
07/06/2006 9:30 a 64.9 64.9 64.9 65.0 64.8 87 60.9 0.0 0.0 Plea 0.00 29.894
07/06/2006 9:40 a 65.1 65.1 65.1 65.3 65.0 88 61.5 0.0 0.0 Plea 0.00 29.895
07/06/2006 9:50 a 65.5 65.5 65.5 65.7 65.3 87 61.5 0.0 1.0 E 0.00 29.891
07/06/2006 10:00 a 65.8 65.8 65.8 66.0 65.7 86 61.5 0.0 1.0 E 0.00 29.889
07/06/2006 10:10 a 66.1 66.1 66.1 66.2 66.0 85 61.5 0.0 1.0 E 0.00 29.889
07/06/2006 10:20 a 66.3 66.3 66.3 66.4 66.2 86 62.0 0.0 0.0 Plea 0.00 29.894
07/06/2006 10:30 a 66.5 66.5 66.5 66.6 66.4 83 61.2 0.0 0.0 Plea 0.00 29.890
07/06/2006 10:40 a 66.6 66.6 66.6 66.6 66.5 82 60.9 0.0 0.0 Plea 0.00 29.889
07/06/2006 10:50 a 66.7 66.7 66.7 66.8 66.6 82 61.0 0.0 2.0 E 0.00 29.914
07/06/2006 11:00 a 67.1 67.1 67.1 67.5 66.8 80 60.7 0.0 3.0 E 0.00 29.915
07/06/2006 11:10 a 67.7 67.7 67.7 67.9 67.5 78 60.6 0.0 3.0 E 0.00 29.920
07/06/2006 11:20 a 69.4 68.0 68.0 68.3 67.9 77 60.5 0.0 3.0 E 0.00 29.918
07/06/2006 11:30 a 70.2 68.5 68.5 68.8 68.3 76 60.6 0.0 1.0 Plea 0.00 29.911
07/06/2006 11:40 a 70.4 69.0 69.0 69.2 68.8 77 61.5 0.0 0.0 Plea 0.00 29.915
07/06/2006 11:50 a 69.6 69.2 69.2 69.4 69.1 73 60.2 0.0 2.0 E 0.00 29.917
07/06/2006 12:00 p 70.2 69.7 69.7 69.9 69.4 71 59.9 0.0 3.0 E 0.00 29.922
07/06/2006 12:10 p 70.2 70.1 70.1 70.3 69.9 71 60.3 0.0 1.0 E 0.00 29.923
07/06/2006 12:20 p 70.4 70.4 70.4 70.5 70.3 72 60.9 0.0 3.0 E 0.00 29.913
07/06/2006 12:30 p 71.8 70.5 70.5 70.7 70.4 74 61.8 0.0 3.0 E 0.00 29.907
07/06/2006 12:40 p 72.0 70.7 70.7 70.7 70.6 75 62.4 0.0 1.0 Plea 0.00 29.908
07/06/2006 12:50 p 71.8 70.8 70.8 71.0 70.7 74 62.1 0.0 0.0 Plea 0.00 29.913
07/06/2006 1:00 p 71.2 71.4 71.4 71.7 71.0 71 61.5 0.0 0.0 Plea 0.00 29.900
07/06/2006 1:10 p 72.4 72.0 72.0 72.2 71.8 72 62.5 0.0 3.0 E 0.00 29.909
07/06/2006 1:20 p 74.0 72.5 72.5 72.8 72.2 70 62.2 0.0 0.0 Plea 0.00 29.906
07/06/2006 1:30 p 73.9 73.0 73.0 73.1 72.8 69 62.2 0.0 4.0 E 0.00 29.895
07/06/2006 1:40 p 73.8 73.1 73.1 73.2 73.1 68 61.9 0.0 3.0 E 0.00 29.903
07/06/2006 1:50 p 73.4 73.4 73.4 73.7 73.1 64 60.5 0.0 1.0 Plea 0.00 29.906
07/06/2006 2:00 p 75.0 74.1 74.1 74.3 73.8 65 61.6 0.0 3.0 E 0.00 29.903
07/06/2006 2:10 p 74.6 74.2 74.2 74.3 74.1 63 60.8 0.0 4.0 E 0.00 29.906
07/06/2006 2:20 p 74.0 74.1 74.1 74.4 74.0 60 59.3 0.0 2.0 E 0.00 29.900
07/06/2006 2:30 p 75.0 74.5 74.5 74.5 74.4 59 59.2 1.0 4.0 E 0.00 29.897
07/06/2006 2:40 p 74.0 74.4 74.4 74.5 74.4 60 59.6 0.0 2.0 SE 0.00 29.895
07/06/2006 2:50 p 75.0 74.5 74.5 74.6 74.4 57 58.3 0.0 3.0 SE 0.00 29.901
07/06/2006 3:00 p 74.0 74.4 74.4 74.6 74.3 57 58.2 0.0 2.0 SE 0.00 29.906
07/06/2006 3:10 p 75.0 74.8 74.8 75.0 74.5 57 58.5 0.0 3.0 SE 0.00 29.910
07/06/2006 3:20 p 75.0 75.1 75.1 75.2 75.0 56 58.3 0.0 5.0 ESE 0.00 29.907
07/06/2006 3:30 p 75.0 75.4 75.4 75.8 75.2 55 58.1 0.0 3.0 ENE 0.00 29.906
07/06/2006 3:40 p 76.0 76.1 76.1 76.3 75.8 55 58.8 0.0 3.0 E 0.00 29.906
07/06/2006 3:50 p 76.0 75.9 75.9 76.2 75.5 56 59.1 0.0 3.0 E 0.00 29.908
07/06/2006 4:00 p 76.0 75.5 75.5 75.6 75.4 55 58.2 0.0 3.0 E 0.00 29.909
07/06/2006 4:10 p 75.0 75.4 75.4 75.5 75.4 53 57.1 0.0 4.0 E 0.00 29.911
07/06/2006 4:20 p 75.0 75.3 75.3 75.4 75.1 53 57.0 1.0 4.0 E 0.00 29.910
07/06/2006 4:30 p 75.0 75.0 75.0 75.1 74.9 55 57.7 0.0 2.0 E 0.00 29.912
07/06/2006 4:40 p 75.0 75.2 75.2 75.4 75.0 52 56.4 1.0 4.0 E 0.00 29.911
07/06/2006 4:50 p 76.0 75.9 75.9 76.2 75.4 53 57.5 0.0 4.0 E 0.00 29.909
07/06/2006 5:00 p 76.0 76.4 76.4 76.6 76.2 54 58.5 0.0 3.0 E 0.00 29.907
07/06/2006 5:10 p 77.0 76.6 76.6 76.7 76.6 51 57.1 0.0 4.0 E 0.00 29.908
07/06/2006 5:20 p 77.0 76.6 76.6 76.7 76.5 52 57.7 0.0 3.0 E 0.00 29.907
07/06/2006 5:30 p 76.0 76.4 76.4 76.5 76.2 52 57.5 0.0 1.0 E 0.00